Flight Track Log - Related Links

Times and Time Zones

All times are in EDT time to prevent confusion due to time zone crossing. See the VIR19 flight status page for this flight to view local times or setup timezone preferences in your user account.

Time Position Orientation Groundspeed Altitude Reporting Facility
EDT Latitude Longitude Course Direction KTS MPH feet Rate Location/Type
Sun 07:27:32 AM 51.4779 -0.5041 270° West 182 209 700  Level FlightAware ADS-B (EGLF / FAB)
Sun 07:27:53 AM 51.4777 -0.5339 269° West 183 211 1,300 1,688 Climbing FlightAware ADS-B
Sun 07:28:04 AM 51.4779 -0.5492 274° West 188 216 1,600 2,308 Climbing FlightAware ADS-B
Sun 07:28:06 AM 51.4780 -0.5492 285° West 195 224 1,800 2,000 Climbing FlightAware ADS-B
Sun 07:28:10 AM 51.4793 -0.5589 283° West 193 222 1,800 750 Level FlightAware ADS-B
Sun 07:28:14 AM 51.4803 -0.5631 294° West 203 234 1,900 1,714 Climbing FlightAware ADS-B
Sun 07:28:17 AM 51.4817 -0.5672 297° West 206 237 2,000 857 Climbing FlightAware ADS-B
Sun 07:28:28 AM 51.4868 -0.5826 299° West 222 255 2,100 500 Climbing FlightAware ADS-B
Sun 07:28:29 AM 51.4857 -0.5798 298° West 222 255 2,100 1,600 Level FlightAware ADS-B
Sun 07:28:43 AM 51.4950 -0.6049 300° West 235 270 2,500 1,500 Climbing FlightAware ADS-B
Sun 07:28:45 AM 51.4942 -0.6034 300° West 237 273 2,500 1,125 Level FlightAware ADS-B (EGLF / FAB)
Sun 07:28:59 AM 51.5040 -0.6300 299° West 249 287 2,800 1,000 Climbing FlightAware ADS-B
Sun 07:29:09 AM 51.5093 -0.6467 296° West 255 293 2,900 800 Climbing FlightAware ADS-B (EHDB)
Sun 07:29:14 AM 51.5124 -0.6569 298° West 263 303 3,000 1,000 Climbing FlightAware ADS-B
Sun 07:29:21 AM 51.5166 -0.6691 300° West 270 311 3,100 1,200 Climbing FlightAware ADS-B
Sun 07:29:24 AM 51.5183 -0.6725 305° West 274 315 3,200 2,000 Climbing FlightAware ADS-B
Sun 07:29:27 AM 51.5208 -0.6775 306° West 275 316 3,300 1,500 Climbing FlightAware ADS-B
Sun 07:29:32 AM 51.5250 -0.6855 313° West 281 323 3,400 1,000 Climbing FlightAware ADS-B (EGLF / FAB)
Sun 07:29:33 AM 51.5260 -0.6871 313° West 281 323 3,400 1,200 Level FlightAware ADS-B
Sun 07:29:37 AM 51.5294 -0.6928 317° Northwest 285 328 3,500 857 Climbing FlightAware ADS-B
Sun 07:29:40 AM 51.5328 -0.6969 323° Northwest 292 336 3,500 1,000 Level FlightAware ADS-B
Sun 07:29:43 AM 51.5359 -0.7005 328° Northwest 297 342 3,600 857 Climbing FlightAware ADS-B (EGLF / FAB)
Sun 07:29:47 AM 51.5408 -0.7049 331° Northwest 300 345 3,600 857 Level FlightAware ADS-B
Sun 07:29:50 AM 51.5434 -0.7069 337° Northwest 305 351 3,700 1,500 Climbing FlightAware ADS-B
Sun 07:29:51 AM 51.5462 -0.7088 336° Northwest 305 351 3,700 1,200 Level FlightAware ADS-B
Sun 07:29:55 AM 51.5511 -0.7120 340° North 307 353 3,800 2,000 Climbing FlightAware ADS-B
Sun 07:29:57 AM 51.5545 -0.7133 344° North 310 357 3,900 3,000 Climbing FlightAware ADS-B
Sun 07:29:59 AM 51.5567 -0.7145 347° North 311 358 4,000 2,000 Climbing FlightAware ADS-B
Sun 07:30:06 AM 51.5664 -0.7169 356° North 314 361 4,200 1,800 Climbing FlightAware ADS-B
Sun 07:30:09 AM 51.5714 -0.7172 359° North 316 364 4,300 2,571 Climbing FlightAware ADS-B
Sun 07:30:13 AM 51.5774 -0.7169 North 317 365 4,500 2,571 Climbing FlightAware ADS-B
Sun 07:30:16 AM 51.5664 -0.7169 North 319 367 4,600 2,000 Climbing FlightAware ADS-B
Sun 07:30:19 AM 51.5858 -0.7150 11° North 320 368 4,700 2,000 Climbing FlightAware ADS-B
Sun 07:30:22 AM 51.5902 -0.7134 14° North 321 369 4,800 3,000 Climbing FlightAware ADS-B
Sun 07:30:23 AM 51.5911 -0.7128 13° North 319 367 4,900 2,667 Climbing FlightAware ADS-B
Sun 07:30:31 AM 51.6037 -0.7067 321° Northwest 290 334 5,200 2,182 Climbing FlightAware ADS-B
Sun 07:30:34 AM 51.6067 -0.7052 17° North 322 371 5,300 2,000 Climbing FlightAware ADS-B (EGLC / LCY)
Sun 07:30:37 AM 51.6113 -0.7033 16° North 323 372 5,400 2,400 Climbing FlightAware ADS-B
Sun 07:30:44 AM 51.6214 -0.6989 13° North 323 372 5,700 2,182 Climbing FlightAware ADS-B
Sun 07:30:48 AM 51.6279 -0.6970 10° North 323 372 5,800 2,667 Climbing FlightAware ADS-B
Sun 07:30:53 AM 51.6360 -0.6950 North 324 373 6,100 2,667 Climbing FlightAware ADS-B
Sun 07:30:57 AM 51.6376 -0.6948 North 323 372 6,200 1,500 Climbing FlightAware ADS-B
Sun 07:31:01 AM 51.6468 -0.6941 North 323 372 6,300  Climbing FlightAware ADS-B
Sun 07:31:03 AM 51.6406 -0.6945 North 324 373 6,200 3,600 Descending FlightAware ADS-B
Sun 07:31:06 AM 51.6547 -0.6941 360° North 321 369 6,600 6,000 Climbing FlightAware ADS-B
Sun 07:31:07 AM 51.6556 -0.6940 360° North 321 369 6,600 1,286 Level FlightAware ADS-B
Sun 07:31:20 AM 51.6757 -0.6952 357° North 323 372 6,900 1,412 Climbing FlightAware ADS-B
Sun 07:31:24 AM 51.6802 -0.6956 357° North 323 372 7,000 800 Climbing FlightAware ADS-B (EGLC / LCY)
Sun 07:31:35 AM 51.6981 -0.6976 356° North 324 373 7,100 400 Climbing FlightAware ADS-B
Sun 07:31:39 AM 51.7036 -0.6982 356° North 325 374 7,100  Level FlightAware ADS-B (EGLC / LCY)
Sun 07:31:44 AM 51.7108 -0.6990 357° North 325 374 7,100 -600 Level FlightAware ADS-B
Sun 07:31:49 AM 51.7187 -0.6993 North 326 375 7,000 -750 Descending FlightAware ADS-B
Sun 07:31:52 AM 51.7234 -0.6990 North 326 375 7,000 -750 Level FlightAware ADS-B
Sun 07:31:57 AM 51.7312 -0.6979 North 326 375 6,900 -600 Descending FlightAware ADS-B
Sun 07:32:02 AM 51.7382 -0.6956 13° North 317 365 6,900  Level FlightAware ADS-B (EHDB)
Sun 07:32:09 AM 51.7479 -0.6916 15° North 323 372 6,900  Level FlightAware ADS-B
Sun 07:32:12 AM 51.7429 -0.6940 14° North 323 372 6,900 1,000 Level FlightAware ADS-B
Sun 07:32:15 AM 51.7555 -0.6885 15° North 322 371 7,000 545 Climbing FlightAware ADS-B (EGLF / FAB)
Sun 07:32:23 AM 51.7691 -0.6824 15° North 320 368 7,000  Level FlightAware ADS-B (EGLC / LCY)
Sun 07:32:27 AM 51.7739 -0.6806 14° North 320 368 7,000  Level FlightAware ADS-B
Sun 07:32:28 AM 51.7759 -0.6800 14° North 320 368 7,000  Level FlightAware ADS-B
Sun 07:32:43 AM 51.7978 -0.6715 13° North 320 368 7,000  Level FlightAware ADS-B
Sun 07:32:58 AM 51.8183 -0.6634 13° North 321 369 7,000  Level FlightAware ADS-B
Sun 07:32:59 AM 51.8203 -0.6629 13° North 321 369 7,000  Level FlightAware ADS-B
Sun 07:33:14 AM 51.8415 -0.6550 13° North 323 372 7,000  Level FlightAware ADS-B (EGLF / FAB)
Sun 07:33:31 AM 51.8675 -0.6454 13° North 318 366 7,000  Level FlightAware ADS-B
Sun 07:33:32 AM 51.8690 -0.6449 13° North 319 367 7,000 1,500 Level FlightAware ADS-B
Sun 07:33:47 AM 51.8895 -0.6373 13° North 321 369 7,400 1,765 Climbing FlightAware ADS-B
Sun 07:33:49 AM 51.8923 -0.6361 13° North 321 369 7,500 2,400 Climbing FlightAware ADS-B
Sun 07:34:02 AM 51.9117 -0.6291 13° North 325 374 8,000 2,000 Climbing FlightAware ADS-B
Sun 07:34:04 AM 51.9140 -0.6281 13° North 325 374 8,000 1,875 Level FlightAware ADS-B (EGLF / FAB)
Sun 07:34:18 AM 51.9361 -0.6195 14° North 329 379 8,500 1,895 Climbing FlightAware ADS-B
Sun 07:34:23 AM 51.9418 -0.6178 14° North 332 382 8,600 1,500 Climbing FlightAware ADS-B (EGLF / FAB)
Sun 07:34:34 AM 51.9596 -0.6104 14° North 335 386 8,900 1,500 Climbing FlightAware ADS-B
Sun 07:34:39 AM 51.9672 -0.6072 14° North 341 392 9,000 1,385 Climbing FlightAware ADS-B (EGLC / LCY)
Sun 07:34:47 AM 51.9794 -0.6021 14° North 344 396 9,200 1,286 Climbing FlightAware ADS-B
Sun 07:34:53 AM 51.9893 -0.5987 North 346 398 9,300 1,500 Climbing FlightAware ADS-B
Sun 07:34:55 AM 51.9697 -0.6059 North 346 398 9,400 2,000 Climbing FlightAware ADS-B (KPGA)
Sun 07:34:59 AM 51.9989 -0.5975 North 346 398 9,500 857 Climbing FlightAware ADS-B
Sun 07:35:02 AM 52.0040 -0.5975 360° North 347 399 9,500 1,200 Level FlightAware ADS-B
Sun 07:35:09 AM 52.0138 -0.5988 355° North 347 399 9,700 1,800 Climbing FlightAware ADS-B
Sun 07:35:12 AM 52.0194 -0.6001 350° North 347 399 9,800 1,200 Climbing FlightAware ADS-B
Sun 07:35:14 AM 52.0227 -0.6017 360° North 339 390 9,800 1,000 Level FlightAware ADS-B (EHDB)
Sun 07:35:18 AM 52.0288 -0.6037 344° North 345 397 9,900 2,400 Climbing FlightAware ADS-B
Sun 07:35:19 AM 52.0275 -0.6037 342° North 345 397 10,000 2,000 Climbing FlightAware ADS-B
Sun 07:35:24 AM 52.0372 -0.6090 337° Northwest 342 394 10,100 923 Climbing FlightAware ADS-B
Sun 07:35:32 AM 52.0476 -0.6189 328° Northwest 340 391 10,200 857 Climbing FlightAware ADS-B
Sun 07:35:38 AM 52.0565 -0.6294 323° Northwest 342 394 10,300 857 Climbing FlightAware ADS-B
Sun 07:35:39 AM 52.0571 -0.6293 323° Northwest 343 395 10,300 800 Level FlightAware ADS-B
Sun 07:35:53 AM 52.0745 -0.6524 320° Northwest 351 404 10,500 960 Climbing FlightAware ADS-B
Sun 07:36:04 AM 52.0883 -0.6717 318° Northwest 352 405 10,700 783 Climbing FlightAware ADS-B (EHDB)
Sun 07:36:16 AM 52.1039 -0.6933 320° Northwest 371 427 10,800 857 Climbing FlightAware ADS-B
Sun 07:36:25 AM 52.1159 -0.7089 324° Northwest 382 440 11,000 889 Climbing FlightAware ADS-B
Sun 07:36:43 AM 52.1441 -0.7395 329° Northwest 399 459 11,200 900 Climbing FlightAware ADS-B
Sun 07:36:45 AM 52.1464 -0.7410 329° Northwest 395 455 11,300 1,286 Climbing FlightAware ADS-B (EHDB)
Sun 07:36:57 AM 52.1670 -0.7605 331° Northwest 410 472 11,500 923 Climbing FlightAware ADS-B
Sun 07:36:58 AM 52.1670 -0.7605 331° Northwest 403 464 11,500 1,161 Level FlightAware ADS-B (EHDB)
Sun 07:37:28 AM 52.2191 -0.8043 333° Northwest 426 490 12,100 1,235 Climbing FlightAware ADS-B
Sun 07:37:32 AM 52.2260 -0.8102 333° Northwest 430 495 12,200 1,714 Climbing FlightAware ADS-B
Sun 07:37:56 AM 52.2634 -0.8395 333° Northwest 436 502 12,900 1,556 Climbing FlightAware ADS-B (KPGA)
Sun 07:37:59 AM 52.2761 -0.8497 334° Northwest 438 504 12,900 2,200 Level FlightAware ADS-B
Sun 07:38:26 AM 52.3239 -0.8898 333° Northwest 444 511 14,000 1,787 Climbing FlightAware ADS-B (EGLF / FAB)
Sun 07:38:46 AM 52.3617 -0.9200 333° Northwest 444 511 14,300 1,385 Climbing FlightAware ADS-B
Sun 07:38:52 AM 52.3714 -0.9290 333° Northwest 448 516 14,600 1,800 Climbing FlightAware ADS-B (EGLF / FAB)
Sun 07:39:06 AM 52.3954 -0.9473 333° Northwest 449 517 14,900 1,680 Climbing FlightAware ADS-B
Sun 07:39:17 AM 52.4191 -0.9674 333° Northwest 449 517 15,300 1,742 Climbing FlightAware ADS-B
Sun 07:39:37 AM 52.4285 -0.9750 333° Northwest 454 522 15,800 1,742 Climbing FlightAware ADS-B
Sun 07:39:48 AM 52.4765 -1.0155 333° Northwest 454 522 16,200 1,846 Climbing FlightAware ADS-B
Sun 07:39:50 AM 52.4802 -1.0185 333° Northwest 450 518 16,200 2,100 Level FlightAware ADS-B (EHDB)
Sun 07:40:08 AM 52.5140 -1.0468 333° Northwest 458 527 16,900 2,069 Climbing FlightAware ADS-B
Sun 07:40:19 AM 52.5347 -1.0639 333° Northwest 456 525 17,200 1,500 Climbing FlightAware ADS-B
Sun 07:40:20 AM 52.5356 -1.0640 333° Northwest 456 525 17,200 2,571 Level FlightAware ADS-B
Sun 07:40:33 AM 52.5615 -1.0858 334° Northwest 456 525 17,800 1,862 Climbing FlightAware ADS-B
Sun 07:40:49 AM 52.5915 -1.1112 333° Northwest 459 528 18,100 1,455 Climbing FlightAware ADS-B
Sun 07:41:06 AM 52.6220 -1.1365 333° Northwest 458 527 18,600 2,400 Climbing FlightAware ADS-B
Sun 07:41:19 AM 52.6492 -1.1600 333° Northwest 453 521 19,300 2,294 Climbing FlightAware ADS-B
Sun 07:41:40 AM 52.6887 -1.1930 333° Northwest 455 524 19,900 3,231 Climbing FlightAware ADS-B
Sun 07:41:45 AM 52.6966 -1.1993 333° Northwest 449 517 20,700 2,462 Climbing FlightAware ADS-B (EGGP / LPL)
Sun 07:42:19 AM 52.7517 -1.2458 333° Northwest 446 513 21,500 1,364 Climbing FlightAware ADS-B
Sun 07:42:29 AM 52.7787 -1.2676 333° Northwest 451 519 21,700 1,588 Climbing FlightAware ADS-B
Sun 07:42:53 AM 52.8230 -1.3054 333° Northwest 454 522 22,400 1,500 Climbing FlightAware ADS-B
Sun 07:43:05 AM 52.8433 -1.3229 332° Northwest 457 526 22,600 1,714 Climbing FlightAware ADS-B
Sun 07:43:14 AM 52.8600 -1.3372 332° Northwest 451 519 23,000 2,308 Climbing FlightAware ADS-B
Sun 07:43:18 AM 52.8705 -1.3452 332° Northwest 451 519 23,100 1,714 Climbing FlightAware ADS-B (KCCR)
Sun 07:43:28 AM 52.8848 -1.3580 333° Northwest 461 531 23,400 1,714 Climbing FlightAware ADS-B
Sun 07:43:32 AM 52.8961 -1.3677 333° Northwest 452 520 23,500 2,182 Climbing FlightAware ADS-B
Sun 07:43:39 AM 52.9096 -1.3789 332° Northwest 456 525 23,800 2,118 Climbing FlightAware ADS-B (KCCR)
Sun 07:43:49 AM 52.9286 -1.3952 332° Northwest 457 526 24,100 1,800 Climbing FlightAware ADS-B (KCCR)
Sun 07:43:59 AM 52.9480 -1.4114 332° Northwest 458 527 24,400 1,765 Climbing FlightAware ADS-B (KCCR)
Sun 07:44:06 AM 52.9578 -1.4195 332° Northwest 464 534 24,600 2,400 Climbing FlightAware ADS-B
Sun 07:44:14 AM 52.9765 -1.4356 332° Northwest 456 525 25,000 2,250 Climbing FlightAware ADS-B (KCCR)
Sun 07:44:22 AM 52.9928 -1.4503 333° Northwest 465 535 25,200 1,886 Climbing FlightAware ADS-B
Sun 07:44:49 AM 53.0147 -1.4683 333° Northwest 468 539 26,100 1,935 Climbing FlightAware ADS-B (EGGP / LPL)
Sun 07:44:53 AM 53.0520 -1.4994 333° Northwest 467 537 26,200 1,688 Climbing FlightAware ADS-B
Sun 07:45:21 AM 53.1045 -1.5456 333° Northwest 471 542 27,000 1,636 Climbing FlightAware ADS-B
Sun 07:45:26 AM 53.1154 -1.5539 333° Northwest 471 542 27,100 1,200 Climbing FlightAware ADS-B
Sun 07:45:36 AM 53.1320 -1.5689 332° Northwest 472 543 27,300 1,385 Climbing FlightAware ADS-B
Sun 07:45:52 AM 53.1650 -1.5972 332° Northwest 475 547 27,700 1,565 Climbing FlightAware ADS-B
Sun 07:45:59 AM 53.1800 -1.6091 333° Northwest 476 548 27,900 1,286 Climbing FlightAware ADS-B
Sun 07:46:06 AM 53.1877 -1.6157 332° Northwest 477 549 28,000 1,636 Climbing FlightAware ADS-B
Sun 07:46:10 AM 53.2019 -1.6293 332° Northwest 472 543 28,200 1,286 Climbing FlightAware ADS-B
Sun 07:46:20 AM 53.2191 -1.6428 332° Northwest 479 551 28,300 1,200 Climbing FlightAware ADS-B
Sun 07:46:30 AM 53.2412 -1.6633 332° Northwest 476 548 28,600 1,286 Climbing FlightAware ADS-B
Sun 07:46:34 AM 53.2478 -1.6686 333° Northwest 483 556 28,600 947 Level FlightAware ADS-B
Sun 07:46:49 AM 53.2753 -1.6927 332° Northwest 486 559 28,900 774 Climbing FlightAware ADS-B
Sun 07:47:05 AM 53.3097 -1.7222 333° Northwest 490 564 29,000 188 Climbing FlightAware ADS-B
Sun 07:47:21 AM 53.3353 -1.7448 332° Northwest 491 565 29,000 387 Level FlightAware ADS-B
Sun 07:47:36 AM 53.3736 -1.7763 333° Northwest 493 567 29,200 938 Climbing FlightAware ADS-B
Sun 07:47:53 AM 53.4070 -1.8064 332° Northwest 499 574 29,500 947 Climbing FlightAware ADS-B
Sun 07:48:14 AM 53.4510 -1.8441 333° Northwest 503 579 29,800 800 Climbing FlightAware ADS-B
Sun 07:48:23 AM 53.4687 -1.8604 333° Northwest 506 582 29,900 800 Climbing FlightAware ADS-B (EGXU / HRT)
Sun 07:48:29 AM 53.4812 -1.8715 332° Northwest 508 585 30,000 857 Climbing FlightAware ADS-B (EGGP / LPL)
Sun 07:48:37 AM 53.4979 -1.8860 333° Northwest 511 588 30,100 706 Climbing FlightAware ADS-B (EGCW)
Sun 07:48:46 AM 53.5127 -1.8982 335° Northwest 517 595 30,200 500 Climbing FlightAware ADS-B (EGCC / MAN)
Sun 07:48:49 AM 53.5246 -1.9066 333° Northwest 510 587 30,200 545 Level FlightAware ADS-B
Sun 07:49:08 AM 53.5662 -1.9368 338° Northwest 524 603 30,400 545 Climbing FlightAware ADS-B
Sun 07:49:11 AM 53.5732 -1.9414 337° Northwest 524 603 30,400 857 Level FlightAware ADS-B
Sun 07:49:15 AM 53.5810 -1.9478 338° Northwest 525 604 30,500 1,029 Climbing FlightAware ADS-B
Sun 07:49:46 AM 53.6504 -1.9964 337° Northwest 524 603 31,000 484 Climbing FlightAware ADS-B
Sun 07:50:17 AM 53.7191 -2.0455 337° Northwest 522 601 31,000  Level FlightAware ADS-B
Sun 07:50:47 AM 53.7878 -2.0949 337° Northwest 521 600 31,000  Level FlightAware ADS-B (EGXU / HRT)
Sun 07:51:17 AM 53.8529 -2.1399 338° Northwest 520 598 31,000  Level FlightAware ADS-B
Sun 07:51:51 AM 53.9279 -2.1929 337° Northwest 519 597 31,000  Level FlightAware ADS-B (EGNT / NCL)
Sun 07:52:21 AM 53.9941 -2.2406 337° Northwest 517 595 31,000  Level FlightAware ADS-B (EGXU / HRT)
Sun 07:52:36 AM 54.0266 -2.2649 336° Northwest 509 586 31,000  Level FlightAware ADS-B
Sun 07:52:45 AM 54.0350 -2.2714 335° Northwest 515 593 31,000  Level FlightAware ADS-B
Sun 07:53:10 AM 54.0969 -2.3223 334° Northwest 513 590 31,000  Level FlightAware ADS-B
Sun 07:53:16 AM 54.1123 -2.3350 335° Northwest 515 593 31,000 167 Level FlightAware ADS-B
Sun 07:53:46 AM 54.1756 -2.3896 333° Northwest 515 593 31,100 677 Climbing FlightAware ADS-B (EGXU / HRT)
Sun 07:54:18 AM 54.2190 -2.4259 334° Northwest 515 593 31,700 1,080 Climbing FlightAware ADS-B (EGCC / MAN)
Sun 07:54:36 AM 54.2826 -2.4803 333° Northwest 509 586 32,000 367 Climbing FlightAware ADS-B
Sun 07:55:07 AM 54.3486 -2.5363 334° Northwest 515 593 32,000  Level FlightAware ADS-B (EGXU / HRT)
Sun 07:55:39 AM 54.4123 -2.5900 334° Northwest 513 590 32,000  Level FlightAware ADS-B (EGPH / EDI)
Sun 07:56:11 AM 54.4844 -2.6510 334° Northwest 510 587 32,000  Level FlightAware ADS-B (EGNT / NCL)
Sun 07:56:41 AM 54.5498 -2.7064 334° Northwest 512 589 32,000  Level FlightAware ADS-B (EGNT / NCL)
Sun 07:57:12 AM 54.6134 -2.7606 334° Northwest 511 588 32,000  Level FlightAware ADS-B
Sun 07:57:30 AM 54.6530 -2.7949 333° Northwest 502 578 32,000  Level FlightAware ADS-B
Sun 07:57:45 AM 54.6848 -2.8220 333° Northwest 501 577 32,000  Level FlightAware ADS-B
Sun 07:57:57 AM 54.7094 -2.8418 333° Northwest 501 577 32,000  Level FlightAware ADS-B
Sun 07:58:27 AM 54.7725 -2.8959 334° Northwest 507 583 32,000  Level FlightAware ADS-B
Sun 07:58:58 AM 54.8357 -2.9520 334° Northwest 506 582 32,000  Level FlightAware ADS-B (LFPO / ORY)
Sun 07:59:31 AM 54.9046 -3.0120 333° Northwest 507 583 32,000  Level FlightAware ADS-B
Sun 08:00:05 AM 54.9781 -3.0757 333° Northwest 507 583 32,000  Level FlightAware ADS-B
Sun 08:00:43 AM 55.0553 -3.1437 333° Northwest 509 586 32,000  Level FlightAware ADS-B
Sun 08:01:20 AM 55.1247 -3.2046 333° Northwest 509 586 32,000  Level FlightAware ADS-B
Sun 08:01:57 AM 55.2051 -3.2749 333° Northwest 508 585 32,000  Level FlightAware ADS-B
Sun 08:02:31 AM 55.2811 -3.3419 333° Northwest 508 585 32,000  Level FlightAware ADS-B
Sun 08:03:04 AM 55.3515 -3.4052 333° Northwest 509 586 32,000  Level FlightAware ADS-B
Sun 08:03:42 AM 55.4270 -3.4725 333° Northwest 508 585 32,000  Level FlightAware ADS-B
Sun 08:04:12 AM 55.4907 -3.5289 333° Northwest 508 585 32,000  Level FlightAware ADS-B
Sun 08:04:44 AM 55.5608 -3.5929 333° Northwest 508 585 32,000  Level FlightAware ADS-B (EGPH / EDI)
Sun 08:05:19 AM 55.6354 -3.6591 333° Northwest 510 587 32,000  Level FlightAware ADS-B
Sun 08:05:49 AM 55.6966 -3.7163 333° Northwest 510 587 32,000  Level FlightAware ADS-B
Sun 08:06:21 AM 55.7656 -3.7794 333° Northwest 511 588 32,000  Level FlightAware ADS-B (EGPH / EDI)
Sun 08:06:52 AM 55.8290 -3.8370 333° Northwest 511 588 32,000  Level FlightAware ADS-B
Sun 08:07:25 AM 55.8983 -3.9007 333° Northwest 511 588 32,000  Level FlightAware ADS-B
Sun 08:07:55 AM 55.9616 -3.9588 333° Northwest 510 587 32,000  Level FlightAware ADS-B
Sun 08:08:27 AM 56.0286 -4.0207 333° Northwest 512 589 32,000  Level FlightAware ADS-B
Sun 08:08:59 AM 56.0951 -4.0831 333° Northwest 512 589 32,000  Level FlightAware ADS-B
Sun 08:09:35 AM 56.1701 -4.1533 333° Northwest 511 588 32,000  Level FlightAware ADS-B (EGPH / EDI)
Sun 08:10:05 AM 56.2338 -4.2131 333° Northwest 512 589 32,000  Level FlightAware UK
Sun 08:10:21 AM 56.2668 -4.2438 332° Northwest 510 587 32,000  Level FlightAware ADS-B
Sun 08:10:51 AM 56.3290 -4.3029 332° Northwest 510 587 32,000  Level FlightAware ADS-B
Sun 08:11:22 AM 56.3951 -4.3640 332° Northwest 512 589 32,000  Level FlightAware ADS-B (EGPH / EDI)
Sun 08:11:53 AM 56.4593 -4.4257 332° Northwest 512 589 32,000  Level FlightAware ADS-B
Sun 08:12:23 AM 56.5215 -4.4853 332° Northwest 513 590 32,000  Level FlightAware ADS-B (EGPH / EDI)
Sun 08:13:03 AM 56.6061 -4.5656 332° Northwest 514 592 32,000  Level FlightAware ADS-B (EGPH / EDI)
Sun 08:13:35 AM 56.6728 -4.6307 332° Northwest 514 592 32,000  Level FlightAware UK
Sun 08:13:49 AM 56.7032 -4.6581 332° Northwest 512 589 32,000  Level FlightAware ADS-B
Sun 08:14:33 AM 56.7952 -4.7489 332° Northwest 510 587 32,000  Level FlightAware ADS-B
Sun 08:15:05 AM 56.8602 -4.8125 332° Northwest 510 587 32,000  Level FlightAware UK
Sun 08:15:13 AM 56.8764 -4.8278 332° Northwest 510 587 32,000  Level FlightAware ADS-B
Sun 08:15:45 AM 56.9432 -4.8928 332° Northwest 510 587 32,000  Level FlightAware ADS-B
Sun 08:16:19 AM 57.0047 -4.9538 332° Northwest 510 587 32,000  Level FlightAware ADS-B (EGPH / EDI)
Sun 08:16:53 AM 57.0853 -5.0334 332° Northwest 509 586 32,000  Level FlightAware ADS-B
Sun 08:17:28 AM 57.1569 -5.1032 331° Northwest 508 585 32,000  Level FlightAware ADS-B (EGPH / EDI)
Sun 08:18:08 AM 57.2359 -5.1917 328° Northwest 503 579 32,000  Level FlightAware ADS-B (EGPH / EDI)
Sun 08:18:40 AM 57.3006 -5.2664 328° Northwest 504 580 32,000  Level FlightAware UK
Sun 08:18:51 AM 57.3185 -5.2864 329° Northwest 503 579 32,000  Level FlightAware ADS-B (EGPH / EDI)
Sun 08:19:32 AM 57.4021 -5.3805 329° Northwest 504 580 32,000  Level FlightAware ADS-B (EGPH / EDI)
Sun 08:20:10 AM 57.4794 -5.4684 329° Northwest 506 582 32,000  Level FlightAware UK
Sun 08:20:18 AM 57.4931 -5.4838 329° Northwest 505 581 32,000  Level FlightAware ADS-B (EGPH / EDI)
Sun 08:20:59 AM 57.5764 -5.5765 329° Northwest 507 583 32,000  Level FlightAware ADS-B
Sun 08:21:40 AM 57.6562 -5.6677 329° Northwest 506 582 32,000  Level FlightAware ADS-B
Sun 08:22:22 AM 57.7385 -5.7635 329° Northwest 505 581 32,000  Level FlightAware ADS-B
Sun 08:22:30 AM 57.7524 -5.7795 329° Northwest 505 581 32,000  Level FlightAware ADS-B (EGPH / EDI)
Sun 08:23:08 AM 57.8342 -5.8735 328° Northwest 504 580 32,000  Level FlightAware ADS-B (EGPH / EDI)
Sun 08:23:55 AM 57.9271 -5.9813 328° Northwest 503 579 32,000  Level FlightAware ADS-B
Sun 08:23:58 AM 57.9333 -5.9889 328° Northwest 504 580 32,000  Level FlightAware UK
Sun 08:24:26 AM 57.9865 -6.0505 328° Northwest 503 579 32,000  Level FlightAware ADS-B
Sun 08:25:06 AM 58.0666 -6.1451 328° Northwest 501 577 32,000  Level FlightAware ADS-B
Sun 08:25:47 AM 58.1458 -6.2374 328° Northwest 499 574 32,000  Level FlightAware ADS-B
Sun 08:26:34 AM 58.2390 -6.3490 328° Northwest 500 575 32,000  Level FlightAware UK
Sun 08:27:10 AM 58.3089 -6.4323 328° Northwest 500 575 32,000  Level FlightAware UK
Sun 08:27:40 AM 58.3671 -6.5025 328° Northwest 502 578 32,000  Level FlightAware UK
Sun 08:28:10 AM 58.4258 -6.5729 328° Northwest 502 578 32,000  Level FlightAware UK
Sun 08:28:40 AM 58.4849 -6.6437 328° Northwest 502 578 32,000  Level FlightAware UK
Sun 08:29:10 AM 58.5437 -6.7149 328° Northwest 502 578 32,000  Level FlightAware UK
Sun 08:29:40 AM 58.6024 -6.7863 328° Northwest 502 578 32,000  Level FlightAware UK
Sun 08:30:10 AM 58.6610 -6.8578 328° Northwest 502 578 32,000  Level FlightAware UK
Sun 08:30:40 AM 58.7196 -6.9295 328° Northwest 502 578 32,000  Level FlightAware UK
Sun 08:31:10 AM 58.7780 -7.0016 327° Northwest 504 580 32,000  Level FlightAware UK
Sun 08:31:40 AM 58.8367 -7.0740 327° Northwest 504 580 32,000  Level FlightAware UK
Sun 08:32:10 AM 58.8954 -7.1470 327° Northwest 504 580 32,000  Level FlightAware UK
Sun 08:32:40 AM 58.9540 -7.2201 327° Northwest 502 578 32,000  Level FlightAware UK
Sun 08:33:10 AM 59.0125 -7.2930 327° Northwest 502 578 32,000  Level FlightAware UK
Sun 08:33:40 AM 59.0707 -7.3660 327° Northwest 500 575 32,000  Level FlightAware UK
Sun 08:34:10 AM 59.1287 -7.4390 327° Northwest 500 575 32,000  Level FlightAware UK
Sun 08:34:40 AM 59.1865 -7.5124 327° Northwest 500 575 32,000  Level FlightAware UK
Sun 08:35:10 AM 59.2442 -7.5862 327° Northwest 500 575 32,000  Level FlightAware UK
Sun 08:35:40 AM 59.3021 -7.6604 327° Northwest 500 575 32,000  Level FlightAware UK
Sun 08:36:10 AM 59.3600 -7.7344 327° Northwest 500 575 32,000  Level FlightAware UK
Sun 08:36:40 AM 59.4179 -7.8084 327° Northwest 500 575 32,000  Level FlightAware UK
Sun 08:37:16 AM 59.4868 -7.8977 327° Northwest 500 575 32,000  Level FlightAware UK
Sun 08:37:46 AM 59.5445 -7.9727 327° Northwest 498 573 32,000  Level FlightAware UK
Sun 08:38:16 AM 59.6019 -8.0478 327° Northwest 496 571 32,000  Level FlightAware UK
Sun 08:38:46 AM 59.6591 -8.1227 327° Northwest 494 568 32,000  Level FlightAware UK
Sun 08:39:16 AM 59.7160 -8.1972 327° Northwest 494 568 32,000  Level FlightAware UK
Sun 08:39:46 AM 59.7727 -8.2723 326° Northwest 494 568 32,000  Level FlightAware UK
Sun 08:40:16 AM 59.8294 -8.3478 326° Northwest 494 568 32,000  Level FlightAware UK
Sun 08:40:46 AM 59.8862 -8.4236 326° Northwest 494 568 32,000  Level FlightAware UK
Sun 08:41:16 AM 59.9428 -8.4995 326° Northwest 494 568 32,000  Level FlightAware UK
Sun 08:41:46 AM 59.9996 -8.5754 326° Northwest 494 568 32,000 13 Level FlightAware UK
Sun 08:43:00 AM 60.0970 -8.8192 309° West  Level Estimated
Sun 08:50:00 AM 60.6411 -10.2305 309° West  Level Estimated
Sun 08:51:00 AM 60.7176 -10.4359 307° West  Level Estimated
Sun 08:52:00 AM 60.7937 -10.6424 307° West  Level Estimated
Sun 08:53:00 AM 60.8696 -10.8498 307° West  Level Estimated
Sun 08:54:00 AM 60.9451 -11.0583 307° West  Level Estimated
Sun 08:55:00 AM 61.0203 -11.2677 307° West  Level Estimated
Sun 08:56:00 AM 61.0952 -11.4781 306° West  Level Estimated
Sun 08:57:00 AM 61.1698 -11.6895 306° West  Level Estimated
Sun 08:58:00 AM 61.2440 -11.9019 306° West  Level Estimated
Sun 08:59:00 AM 61.3179 -12.1153 306° West  Level Estimated
Sun 09:00:00 AM 61.3914 -12.3297 306° West  Level Estimated
Sun 09:01:00 AM 61.4647 -12.5451 305° West  Level Estimated
Sun 09:02:00 AM 61.5375 -12.7616 305° West  Level Estimated
Sun 09:03:00 AM 61.6101 -12.9790 305° West  Level Estimated
Sun 09:04:00 AM 61.6822 -13.1975 305° West  Level Estimated
Sun 09:05:00 AM 61.7541 -13.4170 305° West  Level Estimated
Sun 09:06:00 AM 61.8256 -13.6375 305° West  Level Estimated
Sun 09:07:00 AM 61.8967 -13.8591 304° West  Level Estimated
Sun 09:08:00 AM 61.9674 -14.0816 304° West  Level Estimated
Sun 09:09:00 AM 62.0379 -14.3052 304° West  Level Estimated
Sun 09:10:00 AM 62.1079 -14.5299 304° West  Level Estimated
Sun 09:11:00 AM 62.1776 -14.7556 304° West  Level Estimated
Sun 09:12:00 AM 62.2469 -14.9823 303° West  Level Estimated
Sun 09:13:00 AM 62.3158 -15.2100 303° West  Level Estimated
Sun 09:14:00 AM 62.3844 -15.4388 303° West  Level Estimated
Sun 09:15:00 AM 62.4526 -15.6687 303° West  Level Estimated
Sun 09:16:00 AM 62.5204 -15.8996 303° West  Level Estimated
Sun 09:17:00 AM 62.5878 -16.1315 302° West  Level Estimated
Sun 09:18:00 AM 62.6549 -16.3645 302° West  Level Estimated
Sun 09:19:00 AM 62.7215 -16.5986 302° West  Level Estimated
Sun 09:20:00 AM 62.7878 -16.8337 302° West  Level Estimated
Sun 09:21:00 AM 62.8536 -17.0699 302° West  Level Estimated
Sun 09:22:00 AM 62.9191 -17.3071 301° West  Level Estimated
Sun 09:23:00 AM 62.9842 -17.5454 301° West  Level Estimated
Sun 09:24:00 AM 63.0489 -17.7847 301° West  Level Estimated
Sun 09:25:00 AM 63.1131 -18.0251 301° West  Level Estimated
Sun 09:26:00 AM 63.1770 -18.2666 300° West  Level Estimated
Sun 09:27:00 AM 63.2404 -18.5091 300° West  Level Estimated
Sun 09:28:00 AM 63.3034 -18.7527 300° West  Level Estimated
Sun 09:29:00 AM 63.3660 -18.9974 300° West  Level Estimated
Sun 09:30:00 AM 63.4282 -19.2431 300° West  Level Estimated
Sun 09:31:00 AM 63.4900 -19.4899 299° West  Level Estimated
Sun 09:32:00 AM 63.5513 -19.7378 299° West  Level Estimated
Sun 09:33:00 AM 63.6122 -19.9867 299° West  Level Estimated
Sun 09:34:00 AM 63.6727 -20.2367 299° West  Level Estimated
Sun 09:35:00 AM 63.7328 -20.4877 298° West  Level Estimated
Sun 09:36:00 AM 63.7924 -20.7398 298° West  Level Estimated
Sun 09:37:00 AM 63.8515 -20.9930 298° West  Level Estimated
Sun 09:38:00 AM 63.9102 -21.2472 298° West  Level Estimated
Sun 09:39:00 AM 63.9685 -21.5026 298° West  Level Estimated
Sun 09:40:00 AM 64.0263 -21.7589 297° West  Level Estimated
Sun 09:41:00 AM 64.0837 -22.0163 297° West  Level Estimated
Sun 09:42:00 AM 64.1406 -22.2748 297° West  Level Estimated
Sun 09:43:00 AM 64.1971 -22.5344 297° West  Level Estimated
Sun 09:44:00 AM 64.2530 -22.7950 296° West  Level Estimated
Sun 09:45:00 AM 64.3086 -23.0566 296° West  Level Estimated
Sun 09:46:00 AM 64.3636 -23.3193 296° West  Level Estimated
Sun 09:47:00 AM 64.4182 -23.5831 296° West  Level Estimated
Sun 09:48:00 AM 64.4723 -23.8479 295° West  Level Estimated
Sun 09:49:00 AM 64.5259 -24.1137 295° West  Level Estimated
Sun 09:50:00 AM 64.5791 -24.3806 295° West  Level Estimated
Sun 09:51:00 AM 64.6317 -24.6486 295° West  Level Estimated
Sun 09:52:00 AM 64.6839 -24.9175 295° West  Level Estimated
Sun 09:53:00 AM 64.7356 -25.1875 294° West  Level Estimated
Sun 09:54:00 AM 64.7868 -25.4585 294° West  Level Estimated
Sun 09:55:00 AM 64.8375 -25.7306 294° West  Level Estimated
Sun 09:56:00 AM 64.8877 -26.0037 294° West  Level Estimated
Sun 09:57:00 AM 64.9374 -26.2777 293° West  Level Estimated
Sun 09:58:00 AM 64.9866 -26.5528 293° West  Level Estimated
Sun 09:59:00 AM 65.0353 -26.8290 293° West  Level Estimated
Sun 10:00:00 AM 65.0834 -27.1061 293° West  Level Estimated
Sun 10:01:00 AM 65.1311 -27.3842 292° West  Level Estimated
Sun 10:02:00 AM 65.1782 -27.6633 292° West  Level Estimated
Sun 10:03:00 AM 65.2249 -27.9434 292° West  Level Estimated
Sun 10:04:00 AM 65.2710 -28.2245 292° West  Level Estimated
Sun 10:05:00 AM 65.3165 -28.5065 291° West  Level Estimated
Sun 10:06:00 AM 65.3616 -28.7896 291° West  Level Estimated
Sun 10:07:00 AM 65.4061 -29.0736 291° West  Level Estimated
Sun 10:08:00 AM 65.4501 -29.3585 290° West  Level Estimated
Sun 10:09:00 AM 65.4935 -29.6444 290° West  Level Estimated
Sun 10:10:00 AM 65.5364 -29.9313 290° West  Level Estimated
Sun 10:11:00 AM 65.5788 -30.2191 290° West  Level Estimated
Sun 10:12:00 AM 65.6206 -30.5078 289° West  Level Estimated
Sun 10:13:00 AM 65.6618 -30.7975 289° West  Level Estimated
Sun 10:14:00 AM 65.7026 -31.0881 289° West  Level Estimated
Sun 10:15:00 AM 65.7427 -31.3796 289° West  Level Estimated
Sun 10:16:00 AM 65.7823 -31.6719 288° West  Level Estimated
Sun 10:17:00 AM 65.8214 -31.9652 288° West  Level Estimated
Sun 10:18:00 AM 65.8598 -32.2594 288° West  Level Estimated
Sun 10:19:00 AM 65.8978 -32.5544 288° West  Level Estimated
Sun 10:20:00 AM 65.9351 -32.8503 287° West  Level Estimated
Sun 10:21:00 AM 65.9719 -33.1471 287° West  Level Estimated
Sun 10:22:00 AM 66.0081 -33.4447 287° West  Level Estimated
Sun 10:23:00 AM 66.0437 -33.7432 287° West  Level Estimated
Sun 10:24:00 AM 66.0787 -34.0425 286° West  Level Estimated
Sun 10:25:00 AM 66.1132 -34.3426 286° West  Level Estimated
Sun 10:26:00 AM 66.1471 -34.6435 286° West  Level Estimated
Sun 10:27:00 AM 66.1804 -34.9452 285° West  Level Estimated
Sun 10:28:00 AM 66.2131 -35.2477 285° West  Level Estimated
Sun 10:29:00 AM 66.2452 -35.5510 285° West  Level Estimated
Sun 10:30:00 AM 66.2767 -35.8550 285° West  Level Estimated
Sun 10:31:00 AM 66.3076 -36.1598 284° West  Level Estimated
Sun 10:32:00 AM 66.3380 -36.4654 284° West  Level Estimated
Sun 10:33:00 AM 66.3677 -36.7717 284° West  Level Estimated
Sun 10:34:00 AM 66.3968 -37.0787 283° West  Level Estimated
Sun 10:35:00 AM 66.4253 -37.3864 283° West  Level Estimated
Sun 10:36:00 AM 66.4533 -37.6948 283° West  Level Estimated
Sun 10:37:00 AM 66.4806 -38.0038 283° West  Level Estimated
Sun 10:38:00 AM 66.5073 -38.3136 282° West  Level Estimated
Sun 10:39:00 AM 66.5333 -38.6240 282° West  Level Estimated
Sun 10:40:00 AM 66.5588 -38.9351 282° West  Level Estimated
Sun 10:41:00 AM 66.5836 -39.2467 281° West  Level Estimated
Sun 10:42:00 AM 66.6079 -39.5590 281° West  Level Estimated
Sun 10:43:00 AM 66.6315 -39.8719 281° West  Level Estimated
Sun 10:44:00 AM 66.6545 -40.1854 281° West  Level Estimated
Sun 10:45:00 AM 66.6768 -40.4995 280° West  Level Estimated
Sun 10:46:00 AM 66.6985 -40.8141 280° West  Level Estimated
Sun 10:47:00 AM 66.7196 -41.1293 280° West  Level Estimated
Sun 10:48:00 AM 66.7401 -41.4450 279° West  Level Estimated
Sun 10:49:00 AM 66.7599 -41.7612 279° West  Level Estimated
Sun 10:50:00 AM 66.7792 -42.0780 279° West  Level Estimated
Sun 10:51:00 AM 66.7977 -42.3952 279° West  Level Estimated
Sun 10:52:00 AM 66.8157 -42.7129 278° West  Level Estimated
Sun 10:53:00 AM 66.8329 -43.0310 278° West  Level Estimated
Sun 10:54:00 AM 66.8496 -43.3496 278° West  Level Estimated
Sun 10:55:00 AM 66.8656 -43.6686 277° West  Level Estimated
Sun 10:56:00 AM 66.8810 -43.9880 277° West  Level Estimated
Sun 10:57:00 AM 66.8957 -44.3078 277° West  Level Estimated
Sun 10:58:00 AM 66.9098 -44.6280 277° West  Level Estimated
Sun 10:59:00 AM 66.9232 -44.9486 276° West  Level Estimated
Sun 11:00:00 AM 66.9360 -45.2695 276° West  Level Estimated
Sun 11:01:00 AM 66.9482 -45.5907 276° West  Level Estimated
Sun 11:02:00 AM 66.9596 -45.9122 275° West  Level Estimated
Sun 11:03:00 AM 66.9705 -46.2341 275° West  Level Estimated
Sun 11:04:00 AM 66.9807 -46.5561 275° West  Level Estimated
Sun 11:05:00 AM 66.9902 -46.8785 274° West  Level Estimated
Sun 11:06:00 AM 66.9991 -47.2011 274° West  Level Estimated
Sun 11:07:00 AM 67.0073 -47.5240 274° West  Level Estimated
Sun 11:08:00 AM 67.0149 -47.8470 274° West  Level Estimated
Sun 11:09:00 AM 67.0218 -48.1702 273° West  Level Estimated
Sun 11:10:00 AM 67.0281 -48.4937 273° West  Level Estimated
Sun 11:11:00 AM 67.0337 -48.8172 273° West  Level Estimated
Sun 11:12:00 AM 67.0386 -49.1410 272° West  Level Estimated
Sun 11:13:00 AM 67.0429 -49.4648 272° West  Level Estimated
Sun 11:14:00 AM 67.0465 -49.7887 272° West  Level Estimated
Sun 11:15:00 AM 67.0495 -50.1128 271° West  Level Estimated
Sun 11:16:00 AM 67.0518 -50.4369 271° West  Level Estimated
Sun 11:17:00 AM 67.0535 -50.7610 271° West  Level Estimated
Sun 11:18:00 AM 67.0545 -51.0852 271° West  Level Estimated
Sun 11:19:00 AM 67.0548 -51.4094 270° West  Level Estimated
Sun 11:20:00 AM 67.0545 -51.7336 270° West  Level Estimated
Sun 11:21:00 AM 67.0536 -52.0578 270° West  Level Estimated
Sun 11:22:00 AM 67.0519 -52.3820 269° West  Level Estimated
Sun 11:23:00 AM 67.0496 -52.7061 269° West  Level Estimated
Sun 11:24:00 AM 67.0467 -53.0301 269° West  Level Estimated
Sun 11:25:00 AM 67.0431 -53.3541 269° West  Level Estimated
Sun 11:26:00 AM 67.0388 -53.6779 268° West  Level Estimated
Sun 11:27:00 AM 67.0339 -54.0016 268° West  Level Estimated
Sun 11:28:00 AM 67.0283 -54.3252 268° West  Level Estimated
Sun 11:29:00 AM 67.0221 -54.6486 267° West  Level Estimated
Sun 11:30:00 AM 67.0152 -54.9719 267° West  Level Estimated
Sun 11:31:00 AM 67.0076 -55.2949 267° West  Level Estimated
Sun 11:32:00 AM 66.9994 -55.6178 266° West  Level Estimated
Sun 11:33:00 AM 66.9906 -55.9404 266° West  Level Estimated
Sun 11:34:00 AM 66.9811 -56.2628 266° West  Level Estimated
Sun 11:35:00 AM 66.9709 -56.5849 266° West  Level Estimated
Sun 11:36:00 AM 66.9601 -56.9067 265° West  Level Estimated
Sun 11:37:00 AM 66.9486 -57.2283 265° West  Level Estimated
Sun 11:38:00 AM 66.9365 -57.5495 265° West  Level Estimated
Sun 11:39:00 AM 66.9238 -57.8704 264° West  Level Estimated
Sun 11:40:00 AM 66.9104 -58.1910 264° West  Level Estimated
Sun 11:41:00 AM 66.8963 -58.5112 264° West  Level Estimated
Sun 11:42:00 AM 66.8816 -58.8310 263° West  Level Estimated
Sun 11:43:00 AM 66.8663 -59.1505 263° West  Level Estimated
Sun 11:44:00 AM 66.8503 -59.4695 263° West  Level Estimated
Sun 11:45:00 AM 66.8337 -59.7881 263° West  Level Estimated
Sun 11:46:00 AM 66.8164 -60.1063 262° West  Level Estimated
Sun 11:47:00 AM 66.7985 -60.4240 262° West  Level Estimated
Sun 11:48:00 AM 66.7800 -60.7412 262° West  Level Estimated
Sun 11:49:00 AM 66.7608 -61.0579 261° West  Level Estimated
Sun 11:50:00 AM 66.7408 -61.3768 261° West  Level Estimated
Sun 11:51:00 AM 66.7202 -61.6952 261° West  Level Estimated
Sun 11:52:00 AM 66.6989 -62.0130 261° West  Level Estimated
Sun 11:53:00 AM 66.6770 -62.3303 260° West  Level Estimated
Sun 11:54:00 AM 66.6545 -62.6470 260° West  Level Estimated
Sun 11:55:00 AM 66.6313 -62.9631 260° West  Level Estimated
Sun 11:56:00 AM 66.6075 -63.2786 259° West  Level Estimated
Sun 11:57:00 AM 66.5830 -63.5936 259° West  Level Estimated
Sun 11:58:00 AM 66.5580 -63.9078 259° West  Level Estimated
Sun 11:59:00 AM 66.5323 -64.2215 259° West  Level Estimated
Sun 12:00:00 PM 66.5059 -64.5344 258° West  Level Estimated
Sun 12:01:00 PM 66.4790 -64.8468 258° West  Level Estimated
Sun 12:02:00 PM 66.4514 -65.1584 258° West  Level Estimated
Sun 12:03:00 PM 66.4232 -65.4693 257° West  Level Estimated
Sun 12:04:00 PM 66.3944 -65.7795 257° West  Level Estimated
Sun 12:05:00 PM 66.3650 -66.0891 257° West  Level Estimated
Sun 12:06:00 PM 66.3350 -66.3978 257° West  Level Estimated
Sun 12:07:00 PM 66.3043 -66.7059 256° West  Level Estimated
Sun 12:08:00 PM 66.2731 -67.0131 256° West  Level Estimated
Sun 12:09:00 PM 66.2412 -67.3196 256° West  Level Estimated
Sun 12:10:00 PM 66.2087 -67.6254 255° West  Level Estimated
Sun 12:11:00 PM 66.1757 -67.9303 255° West  Level Estimated
Sun 12:12:00 PM 66.1420 -68.2344 255° West  Level Estimated
Sun 12:13:00 PM 66.1078 -68.5377 255° West  Level Estimated
Sun 12:14:00 PM 66.0729 -68.8402 254° West  Level Estimated
Sun 12:15:00 PM 66.0375 -69.1419 254° West  Level Estimated
Sun 12:16:00 PM 66.0014 -69.4427 254° West  Level Estimated
Sun 12:17:00 PM 65.9648 -69.7426 253° West  Level Estimated
Sun 12:18:00 PM 65.9276 -70.0417 253° West  Level Estimated
Sun 12:19:00 PM 65.8899 -70.3399 253° West  Level Estimated
Sun 12:20:00 PM 65.8515 -70.6372 253° West  Level Estimated
Sun 12:21:00 PM 65.8126 -70.9337 252° West  Level Estimated
Sun 12:22:00 PM 65.7731 -71.2292 252° West  Level Estimated
Sun 12:23:00 PM 65.7330 -71.5238 252° West  Level Estimated
Sun 12:24:00 PM 65.6924 -71.8175 252° West  Level Estimated
Sun 12:25:00 PM 65.6512 -72.1103 251° West  Level Estimated
Sun 12:26:00 PM 65.6094 -72.4021 251° West  Level Estimated
Sun 12:27:00 PM 65.5671 -72.6930 251° West  Level Estimated
Sun 12:28:00 PM 65.5242 -72.9830 250° West  Level Estimated
Sun 12:29:00 PM 65.4808 -73.2720 250° West  Level Estimated
Sun 12:30:00 PM 65.4369 -73.5600 250° West  Level Estimated
Sun 12:31:00 PM 65.3924 -73.8471 250° West  Level Estimated
Sun 12:32:00 PM 65.3473 -74.1331 249° West  Level Estimated
Sun 12:33:00 PM 65.3017 -74.4182 249° West  Level Estimated
Sun 12:34:00 PM 65.2556 -74.7023 249° West  Level Estimated
Sun 12:35:00 PM 65.2089 -74.9854 249° West  Level Estimated
Sun 12:36:00 PM 65.1617 -75.2675 248° West  Level Estimated
Sun 12:37:00 PM 65.1140 -75.5486 248° West  Level Estimated
Sun 12:38:00 PM 65.0657 -75.8287 248° West  Level Estimated
Sun 12:39:00 PM 65.0170 -76.1077 248° West  Level Estimated
Sun 12:40:00 PM 64.9677 -76.3858 247° West  Level Estimated
Sun 12:41:00 PM 64.9179 -76.6628 247° West  Level Estimated
Sun 12:42:00 PM 64.8676 -76.9388 247° West  Level Estimated
Sun 12:43:00 PM 64.8167 -77.2137 247° West  Level Estimated
Sun 12:44:00 PM 64.7654 -77.4876 246° West  Level Estimated
Sun 12:45:00 PM 64.7136 -77.7605 246° West  Level Estimated
Sun 12:46:00 PM 64.6612 -78.0323 246° West  Level Estimated
Sun 12:47:00 PM 64.6084 -78.3030 246° West  Level Estimated
Sun 12:48:00 PM 64.5551 -78.5727 245° Southwest  Level Estimated
Sun 12:49:00 PM 64.5013 -78.8414 245° Southwest  Level Estimated
Sun 12:50:00 PM 64.4470 -79.1090 245° Southwest  Level Estimated
Sun 12:51:00 PM 64.3922 -79.3755 245° Southwest  Level Estimated
Sun 12:52:00 PM 64.3369 -79.6410 244° Southwest  Level Estimated
Sun 12:53:00 PM 64.2812 -79.9053 244° Southwest  Level Estimated
Sun 12:54:00 PM 64.2250 -80.1687 244° Southwest  Level Estimated
Sun 12:55:00 PM 64.1683 -80.4309 244° Southwest  Level Estimated
Sun 12:56:00 PM 64.1111 -80.6921 243° Southwest  Level Estimated
Sun 12:57:00 PM 64.0535 -80.9522 243° Southwest  Level Estimated
Sun 12:58:00 PM 63.9954 -81.2112 243° Southwest  Level Estimated
Sun 12:59:00 PM 63.9368 -81.4691 243° Southwest  Level Estimated
Sun 01:00:00 PM 63.8778 -81.7260 243° Southwest  Level Estimated
Sun 01:01:00 PM 63.8184 -81.9818 242° Southwest  Level Estimated
Sun 01:02:00 PM 63.7585 -82.2365 242° Southwest  Level Estimated
Sun 01:03:00 PM 63.6981 -82.4901 242° Southwest  Level Estimated
Sun 01:04:00 PM 63.6373 -82.7426 242° Southwest  Level Estimated
Sun 01:05:00 PM 63.5761 -82.9940 241° Southwest  Level Estimated
Sun 01:06:00 PM 63.5144 -83.2444 241° Southwest  Level Estimated
Sun 01:07:00 PM 63.4523 -83.4937 241° Southwest  Level Estimated
Sun 01:08:00 PM 63.3897 -83.7419 241° Southwest  Level Estimated
Sun 01:09:00 PM 63.3267 -83.9890 241° Southwest  Level Estimated
Sun 01:10:00 PM 63.2633 -84.2350 240° Southwest  Level Estimated
Sun 01:11:00 PM 63.1995 -84.4800 240° Southwest  Level Estimated
Sun 01:12:00 PM 63.1353 -84.7238 240° Southwest  Level Estimated
Sun 01:13:00 PM 63.0706 -84.9666 240° Southwest  Level Estimated
Sun 01:14:00 PM 63.0056 -85.2083 239° Southwest  Level Estimated
Sun 01:15:00 PM 62.9401 -85.4490 239° Southwest  Level Estimated
Sun 01:16:00 PM 62.8742 -85.6885 239° Southwest  Level Estimated
Sun 01:17:00 PM 62.8079 -85.9270 239° Southwest  Level Estimated
Sun 01:18:00 PM 62.7412 -86.1644 239° Southwest  Level Estimated
Sun 01:19:00 PM 62.6741 -86.4007 238° Southwest  Level Estimated
Sun 01:20:00 PM 62.6066 -86.6360 238° Southwest  Level Estimated
Sun 01:21:00 PM 62.5387 -86.8702 238° Southwest  Level Estimated
Sun 01:22:00 PM 62.4704 -87.1033 238° Southwest  Level Estimated
Sun 01:23:00 PM 62.4018 -87.3353 238° Southwest  Level Estimated
Sun 01:24:00 PM 62.3327 -87.5663 237° Southwest  Level Estimated
Sun 01:25:00 PM 62.2633 -87.7962 237° Southwest  Level Estimated
Sun 01:26:00 PM 62.1935 -88.0251 237° Southwest  Level Estimated
Sun 01:27:00 PM 62.1233 -88.2529 237° Southwest  Level Estimated
Sun 01:28:00 PM 62.0528 -88.4797 236° Southwest  Level Estimated
Sun 01:29:00 PM 61.9818 -88.7054 236° Southwest  Level Estimated
Sun 01:30:00 PM 61.9105 -88.9300 236° Southwest  Level Estimated
Sun 01:31:00 PM 61.8389 -89.1536 236° Southwest  Level Estimated
Sun 01:32:00 PM 61.7669 -89.3762 236° Southwest  Level Estimated
Sun 01:33:00 PM 61.6945 -89.5977 235° Southwest  Level Estimated
Sun 01:34:00 PM 61.6218 -89.8181 235° Southwest  Level Estimated
Sun 01:35:00 PM 61.5487 -90.0376 235° Southwest  Level Estimated
Sun 01:36:00 PM 61.4753 -90.2560 235° Southwest  Level Estimated
Sun 01:37:00 PM 61.4015 -90.4734 235° Southwest  Level Estimated
Sun 01:38:00 PM 61.3274 -90.6897 235° Southwest  Level Estimated
Sun 01:39:00 PM 61.2529 -90.9050 234° Southwest  Level Estimated
Sun 01:40:00 PM 61.1781 -91.1193 234° Southwest  Level Estimated
Sun 01:41:00 PM 61.1029 -91.3326 234° Southwest  Level Estimated
Sun 01:42:00 PM 61.0275 -91.5449 234° Southwest  Level Estimated
Sun 01:43:00 PM 60.9516 -91.7561 234° Southwest  Level Estimated
Sun 01:44:00 PM 60.8755 -91.9664 233° Southwest  Level Estimated
Sun 01:45:00 PM 60.7990 -92.1757 233° Southwest  Level Estimated
Sun 01:46:00 PM 60.7223 -92.3839 233° Southwest  Level Estimated
Sun 01:47:00 PM 60.6451 -92.5912 233° Southwest  Level Estimated
Sun 01:48:00 PM 60.5677 -92.7974 233° Southwest  Level Estimated
Sun 01:49:00 PM 60.4900 -93.0027 233° Southwest  Level Estimated
Sun 01:50:00 PM 60.4119 -93.2070 232° Southwest  Level Estimated
Sun 01:51:00 PM 60.3335 -93.4103 232° Southwest  Level Estimated
Sun 01:52:00 PM 60.2548 -93.6127 232° Southwest  Level Estimated
Sun 01:53:00 PM 60.1759 -93.8140 232° Southwest  Level Estimated
Sun 01:54:00 PM 60.0966 -94.0144 232° Southwest  Level Estimated
Sun 01:55:00 PM 60.0170 -94.2139 231° Southwest  Level Estimated
Sun 01:55:25 PM 62.3167 -102.8333 231° Southwest 470 541 36,000  Level Edmonton Center
Sun 01:56:00 PM 59.9371 -94.4123 231° Southwest  Level Estimated
Sun 01:56:25 PM 62.2167 -102.9833 215° Southwest 460 529 36,000  Level Edmonton Center
Sun 01:57:00 PM 59.8569 -94.6099 231° Southwest  Level Estimated
Sun 01:57:25 PM 62.1000 -103.2167 223° Southwest 450 518 36,000  Level Edmonton Center
Sun 01:58:00 PM 59.7764 -94.8064 231° Southwest  Level Estimated
Sun 01:58:25 PM 62.0000 -103.3667 215° Southwest 450 518 36,000  Level Edmonton Center
Sun 01:59:00 PM 59.6956 -95.0021 231° Southwest  Level Estimated
Sun 01:59:25 PM 61.9000 -103.5500 221° Southwest 450 518 36,000  Level Edmonton Center
Sun 02:00:00 PM 59.6146 -95.1967 231° Southwest  Level Estimated
Sun 02:00:25 PM 61.8167 -103.7333 226° Southwest 460 529 36,000  Level Edmonton Center
Sun 02:01:25 PM 61.7167 -103.8833 215° Southwest 460 529 36,000  Level Edmonton Center
Sun 02:02:25 PM 61.6167 -104.0667 221° Southwest 460 529 36,000  Level Edmonton Center
Sun 02:03:25 PM 61.5167 -104.2500 221° Southwest 460 529 36,000  Level Edmonton Center
Sun 02:04:25 PM 61.4167 -104.3833 213° Southwest 460 529 36,000  Level Edmonton Center
Sun 02:05:25 PM 61.3167 -104.5667 221° Southwest 460 529 36,000  Level Edmonton Center
Sun 02:06:25 PM 61.2167 -104.7500 221° Southwest 450 518 36,000  Level Edmonton Center
Sun 02:07:25 PM 61.1167 -104.8833 213° Southwest 450 518 36,000  Level Edmonton Center
Sun 02:08:25 PM 61.0167 -105.0667 222° Southwest 450 518 36,000  Level Edmonton Center
Sun 02:09:25 PM 60.9000 -105.2333 215° Southwest 460 529 36,000  Level Edmonton Center
Sun 02:10:25 PM 60.8000 -105.4167 222° Southwest 460 529 36,000  Level Edmonton Center
Sun 02:11:25 PM 60.7000 -105.5500 213° Southwest 460 529 36,000  Level Edmonton Center
Sun 02:12:25 PM 60.6000 -105.7167 219° Southwest 450 518 36,000  Level Edmonton Center
Sun 02:13:25 PM 60.5000 -105.8833 219° Southwest 450 518 36,000  Level Edmonton Center
Sun 02:14:25 PM 60.4000 -106.0167 213° Southwest 450 518 36,000  Level Edmonton Center
Sun 02:15:25 PM 60.3000 -106.1833 220° Southwest 450 518 36,000  Level Edmonton Center
Sun 02:16:25 PM 60.2000 -106.3500 220° Southwest 450 518 36,000  Level Edmonton Center
Sun 02:17:25 PM 60.1000 -106.4833 214° Southwest 450 518 36,000  Level Edmonton Center
Sun 02:18:25 PM 60.0000 -106.6500 220° Southwest 450 518 36,000  Level Edmonton Center
Sun 02:19:25 PM 59.9000 -106.7833 214° Southwest 450 518 36,000  Level Edmonton Center
Sun 02:20:25 PM 59.7833 -106.9500 216° Southwest 450 518 36,000  Level Edmonton Center
Sun 02:21:25 PM 59.6833 -107.1167 220° Southwest 450 518 36,000  Level Edmonton Center
Sun 02:22:25 PM 59.6000 -107.2333 215° Southwest 450 518 36,000  Level Edmonton Center
Sun 02:23:25 PM 59.5000 -107.4000 220° Southwest 450 518 36,000  Level Edmonton Center
Sun 02:24:25 PM 59.3833 -107.5667 216° Southwest 450 518 36,000  Level Edmonton Center
Sun 02:25:25 PM 59.2833 -107.7167 217° Southwest 450 518 36,000  Level Edmonton Center
Sun 02:26:25 PM 59.1667 -107.8333 207° Southwest 450 518 36,000  Level Edmonton Center
Sun 02:27:25 PM 59.0667 -107.9667 214° Southwest 460 529 36,000  Level Edmonton Center
Sun 02:28:25 PM 58.9333 -108.0833 204° Southwest 460 529 36,000  Level Edmonton Center
Sun 02:29:25 PM 58.8333 -108.2000 211° Southwest 460 529 36,000  Level Edmonton Center
Sun 02:30:25 PM 58.7333 -108.3333 215° Southwest 460 529 36,000  Level Edmonton Center
Sun 02:31:25 PM 58.6000 -108.4500 205° Southwest 450 518 36,000  Level Edmonton Center
Sun 02:32:25 PM 58.5000 -108.5667 211° Southwest 450 518 36,000  Level Edmonton Center
Sun 02:33:25 PM 58.4000 -108.6833 211° Southwest 450 518 36,000  Level Edmonton Center
Sun 02:34:25 PM 58.2667 -108.8000 205° Southwest 460 529 36,000  Level Edmonton Center
Sun 02:35:25 PM 58.1667 -108.9167 212° Southwest 460 529 36,000  Level Edmonton Center
Sun 02:36:25 PM 58.0667 -109.0333 212° Southwest 460 529 36,000  Level Edmonton Center
Sun 02:37:25 PM 57.9333 -109.1833 211° Southwest 460 529 36,000  Level Edmonton Center
Sun 02:38:25 PM 57.8167 -109.3000 208° Southwest 460 529 36,000  Level Edmonton Center
Sun 02:39:25 PM 57.7167 -109.4000 208° Southwest 460 529 36,000  Level Edmonton Center
Sun 02:40:25 PM 57.6000 -109.5167 208° Southwest 460 529 36,000  Level Edmonton Center
Sun 02:41:25 PM 57.5000 -109.6333 212° Southwest 450 518 36,000  Level Edmonton Center
Sun 02:42:25 PM 57.3667 -109.7500 205° Southwest 450 518 36,000  Level Edmonton Center
Sun 02:43:25 PM 57.2667 -109.8500 208° Southwest 450 518 36,000  Level Edmonton Center
Sun 02:44:25 PM 57.1667 -109.9667 212° Southwest 450 518 36,000  Level Edmonton Center
Sun 02:45:25 PM 57.0333 -110.0833 205° Southwest 450 518 36,000  Level Edmonton Center
Sun 02:46:25 PM 56.9333 -110.1833 209° Southwest 440 506 36,000  Level Edmonton Center
Sun 02:47:25 PM 56.8167 -110.3333 215° Southwest 440 506 36,000  Level Edmonton Center
Sun 02:48:25 PM 56.7167 -110.4000 200° South 440 506 36,000  Level Edmonton Center
Sun 02:49:25 PM 56.6167 -110.5167 213° Southwest 440 506 36,000  Level Edmonton Center
Sun 02:50:25 PM 56.4833 -110.6167 203° Southwest 440 506 36,000  Level Edmonton Center
Sun 02:51:25 PM 56.3833 -110.7167 209° Southwest 440 506 36,000  Level Edmonton Center
Sun 02:52:25 PM 56.2667 -110.8333 209° Southwest 440 506 36,000  Level Edmonton Center
Sun 02:53:25 PM 56.1667 -110.9333 209° Southwest 440 506 36,000  Level Edmonton Center
Sun 02:54:25 PM 56.0667 -111.0333 209° Southwest 440 506 36,000  Level Edmonton Center
Sun 02:55:25 PM 55.9500 -111.1500 209° Southwest 440 506 36,000  Level Edmonton Center
Sun 02:56:25 PM 55.8500 -111.2500 209° Southwest 440 506 36,000  Level Edmonton Center
Sun 02:57:25 PM 55.7167 -111.3500 203° Southwest 440 506 36,000  Level Edmonton Center
Sun 02:58:25 PM 55.6167 -111.4500 209° Southwest 440 506 36,000  Level Edmonton Center
Sun 02:59:25 PM 55.5000 -111.5500 206° Southwest 440 506 36,000  Level Edmonton Center
Sun 03:00:25 PM 55.4000 -111.6500 210° Southwest 440 506 36,000  Level Edmonton Center
Sun 03:01:25 PM 55.2833 -111.7500 206° Southwest 440 506 36,000  Level Edmonton Center
Sun 03:02:25 PM 55.1667 -111.8500 206° Southwest 440 506 36,000  Level Edmonton Center
Sun 03:03:25 PM 55.0500 -111.9500 206° Southwest 440 506 36,000  Level Edmonton Center
Sun 03:04:25 PM 54.9500 -112.0500 210° Southwest 440 506 36,000 463 Level Edmonton Center
Sun 03:07:44 PM 54.6392 -112.4517 216° Southwest 441 507 38,000 311 Climbing FlightAware ADS-B
Sun 03:10:51 PM 54.3284 -112.8306 215° Southwest 446 513 38,000  Level FlightAware ADS-B
Sun 03:11:24 PM 54.2670 -112.9060 215° Southwest 447 514 38,000  Level FlightAware ADS-B
Sun 03:12:24 PM 54.1643 -113.0307 215° Southwest 450 518 38,000  Level FlightAware ADS-B
Sun 03:13:24 PM 54.0628 -113.1507 215° Southwest 448 516 38,000  Level FlightAware ADS-B
Sun 03:13:54 PM 54.0136 -113.2092 215° Southwest 446 513 38,000  Level FlightAware ADS-B
Sun 03:14:24 PM 53.9622 -113.2713 215° Southwest 444 511 38,000  Level FlightAware ADS-B (CYEG)
Sun 03:14:55 PM 53.9098 -113.3334 215° Southwest 444 511 38,000  Level FlightAware ADS-B
Sun 03:15:25 PM 53.8599 -113.3930 215° Southwest 445 512 38,000  Level FlightAware ADS-B
Sun 03:15:55 PM 53.8095 -113.4524 215° Southwest 444 511 38,000  Level FlightAware ADS-B
Sun 03:16:26 PM 53.7574 -113.5139 215° Southwest 443 510 38,000  Level FlightAware ADS-B
Sun 03:16:56 PM 53.7069 -113.5729 215° Southwest 443 510 38,000  Level FlightAware ADS-B
Sun 03:17:28 PM 53.6514 -113.6375 215° Southwest 441 507 38,000  Level FlightAware ADS-B (CYEG)
Sun 03:17:59 PM 53.5998 -113.6982 215° Southwest 442 509 38,000  Level FlightAware ADS-B (CYEG)
Sun 03:18:39 PM 53.5321 -113.7763 215° Southwest 443 510 38,000  Level FlightAware ADS-B (CYEG)
Sun 03:19:09 PM 53.4815 -113.8346 215° Southwest 442 509 38,000  Level FlightAware ADS-B (CYEG)
Sun 03:19:41 PM 53.4298 -113.8929 215° Southwest 436 502 38,000  Level FlightAware ADS-B
Sun 03:20:11 PM 53.3783 -113.9532 214° Southwest 445 512 38,000  Level FlightAware ADS-B
Sun 03:20:27 PM 53.3513 -113.9843 214° Southwest 444 511 38,000  Level FlightAware ADS-B (CYEG)
Sun 03:21:11 PM 53.2783 -114.0678 214° Southwest 445 512 38,000  Level FlightAware ADS-B
Sun 03:21:56 PM 53.2004 -114.1562 214° Southwest 443 510 38,000  Level FlightAware ADS-B
Sun 03:22:40 PM 53.1278 -114.2385 214° Southwest 440 506 38,000  Level FlightAware ADS-B
Sun 03:23:10 PM 53.0787 -114.2934 215° Southwest 431 496 38,000  Level FlightAware ADS-B
Sun 03:23:41 PM 53.0258 -114.3536 214° Southwest 437 503 38,000  Level FlightAware ADS-B
Sun 03:24:54 PM 52.9020 -114.4922 214° Southwest 435 501 38,000  Level FlightAware ADS-B
Sun 03:25:25 PM 52.8508 -114.5496 214° Southwest 425 489 38,000  Level FlightAware ADS-B
Sun 03:26:16 PM 52.7662 -114.6433 214° Southwest 429 494 38,000  Level FlightAware ADS-B
Sun 03:27:23 PM 52.6500 -114.7333 214° Southwest 400 460 38,000  Level Vancouver Center
Sun 03:28:23 PM 52.5333 -114.8333 208° Southwest 430 495 38,000  Level Vancouver Center
Sun 03:29:23 PM 52.4500 -114.9333 216° Southwest 430 495 38,000  Level Vancouver Center
Sun 03:30:23 PM 52.3500 -115.0333 211° Southwest 430 495 38,000  Level Vancouver Center
Sun 03:31:23 PM 52.2500 -115.1667 219° Southwest 430 495 38,000  Level Vancouver Center
Sun 03:32:23 PM 52.1500 -115.2667 212° Southwest 430 495 38,000  Level Vancouver Center
Sun 03:33:23 PM 52.0667 -115.3667 216° Southwest 440 506 38,000  Level Vancouver Center
Sun 03:34:23 PM 51.9500 -115.4667 208° Southwest 440 506 38,000  Level Vancouver Center
Sun 03:35:23 PM 51.8333 -115.6000 215° Southwest 440 506 38,000  Level Vancouver Center
Sun 03:36:23 PM 51.7500 -115.7000 217° Southwest 450 518 38,000  Level Vancouver Center
Sun 03:37:23 PM 51.6333 -115.8000 208° Southwest 450 518 38,000  Level Vancouver Center
Sun 03:38:23 PM 51.5333 -115.9167 216° Southwest 450 518 38,000  Level Vancouver Center
Sun 03:39:23 PM 51.4167 -116.0167 208° Southwest 440 506 38,000  Level Vancouver Center
Sun 03:40:23 PM 51.3167 -116.1167 212° Southwest 440 506 38,000  Level Vancouver Center
Sun 03:41:23 PM 51.2167 -116.2500 220° Southwest 440 506 38,000  Level Vancouver Center
Sun 03:42:23 PM 51.1167 -116.3500 212° Southwest 440 506 38,000  Level Vancouver Center
Sun 03:43:23 PM 51.0167 -116.4333 208° Southwest 440 506 38,000  Level Vancouver Center
Sun 03:44:23 PM 50.9167 -116.5667 220° Southwest 430 495 38,000  Level Vancouver Center
Sun 03:45:23 PM 50.8000 -116.6333 200° South 430 495 38,000  Level Vancouver Center
Sun 03:46:23 PM 50.7000 -116.7333 212° Southwest 440 506 38,000  Level Vancouver Center
Sun 03:47:23 PM 50.5833 -116.8000 200° South 440 506 38,000  Level Vancouver Center
Sun 03:48:23 PM 50.4833 -116.8833 208° Southwest 440 506 38,000  Level Vancouver Center
Sun 03:49:23 PM 50.3500 -116.9667 202° Southwest 440 506 38,000  Level Vancouver Center
Sun 03:50:23 PM 50.2667 -117.0500 213° Southwest 440 506 38,000  Level Vancouver Center
Sun 03:51:23 PM 50.1500 -117.1167 200° South 440 506 38,000  Level Vancouver Center
Sun 03:52:23 PM 50.0333 -117.2167 209° Southwest 440 506 38,000  Level Vancouver Center
Sun 03:53:23 PM 49.9333 -117.2833 203° Southwest 420 483 38,000  Level Vancouver Center
Sun 03:54:23 PM 49.8167 -117.3500 200° South 420 483 38,000  Level Vancouver Center
Sun 03:55:23 PM 49.7333 -117.4333 213° Southwest 420 483 38,000  Level Vancouver Center
Sun 03:56:23 PM 49.6167 -117.5000 200° South 420 483 38,000  Level Vancouver Center
Sun 03:57:23 PM 49.5000 -117.5667 200° South 410 472 38,000  Level Vancouver Center
Sun 03:58:23 PM 49.4000 -117.6667 213° Southwest 420 483 38,000  Level Vancouver Center
Sun 03:59:23 PM 49.3000 -117.7333 204° Southwest 420 483 38,000  Level Vancouver Center
Sun 04:00:23 PM 49.2000 -117.8000 204° Southwest 420 483 38,000  Level Vancouver Center
Sun 04:01:23 PM 49.0833 -117.8833 205° Southwest 420 483 38,000  Level Vancouver Center
Sun 04:02:23 PM 48.9833 -117.9500 204° Southwest 410 472 38,000  Level Vancouver Center
Sun 04:03:23 PM 48.8667 -118.0333 205° Southwest 410 472 38,000  Level Vancouver Center
Sun 04:04:23 PM 48.7833 -118.1000 208° Southwest 410 472 38,000  Level Vancouver Center
Sun 04:05:23 PM 48.6667 -118.1667 201° Southwest 410 472 38,000  Level Vancouver Center
Sun 04:06:23 PM 48.5667 -118.2167 198° South 410 472 38,000  Level Vancouver Center
Sun 04:07:29 PM 48.4711 -118.3272 218° Southwest 405 466 38,000  Level Seattle Center
Sun 04:08:30 PM 48.3692 -118.3967 204° Southwest 404 465 38,000  Level Seattle Center
Sun 04:09:31 PM 48.2672 -118.4639 204° Southwest 403 464 38,000  Level Seattle Center
Sun 04:10:32 PM 48.1650 -118.5308 204° Southwest 404 465 38,000  Level Seattle Center
Sun 04:11:32 PM 48.0617 -118.5989 204° Southwest 407 468 38,000  Level Seattle Center
Sun 04:16:10 PM 47.5772 -118.9140 204° Southwest 396 456 38,000  Level FlightAware ADS-B
Sun 04:17:01 PM 47.4917 -118.9690 203° Southwest 395 455 38,000  Level FlightAware ADS-B
Sun 04:17:33 PM 47.4392 -119.0020 203° Southwest 397 457 38,000  Level FlightAware ADS-B
Sun 04:18:04 PM 47.3862 -119.0350 203° Southwest 396 456 38,000  Level FlightAware ADS-B
Sun 04:18:42 PM 47.3232 -119.0760 203° Southwest 395 455 38,000  Level FlightAware ADS-B
Sun 04:19:12 PM 47.2724 -119.1080 203° Southwest 397 457 38,000 500 Level FlightAware ADS-B
Sun 04:19:42 PM 47.2206 -119.1410 203° Southwest 399 459 38,500 882 Climbing FlightAware ADS-B
Sun 04:20:20 PM 47.1566 -119.1810 203° Southwest 404 465 39,000 435 Climbing FlightAware ADS-B
Sun 04:20:51 PM 47.1034 -119.2150 203° Southwest 407 468 39,000  Level FlightAware ADS-B
Sun 04:21:23 PM 47.0477 -119.2500 203° Southwest 407 468 39,000  Level FlightAware ADS-B
Sun 04:21:57 PM 46.9899 -119.2870 203° Southwest 406 467 39,000  Level FlightAware ADS-B
Sun 04:22:43 PM 46.9103 -119.3360 203° Southwest 408 470 39,000  Level FlightAware ADS-B
Sun 04:23:11 PM 46.8602 -119.3680 203° Southwest 412 474 39,000  Level FlightAware ADS-B
Sun 04:23:46 PM 46.8001 -119.4050 203° Southwest 412 474 39,000  Level FlightAware ADS-B
Sun 04:25:29 PM 46.6202 -119.5170 1000° North 415 478 39,000  Level FlightAware ADS-B
Sun 04:25:57 PM 46.5715 -119.5467 203° Southwest 404 465 39,000  Level FlightAware ADS-B (SBFL / FLN)
Sun 04:26:08 PM 46.5515 -119.5590 203° Southwest 404 465 39,000  Level FlightAware ADS-B
Sun 04:26:38 PM 46.5049 -119.5880 203° Southwest 406 467 39,000  Level FlightAware ADS-B (SBFL / FLN)
Sun 04:27:17 PM 46.4330 -119.6318 203° Southwest 406 467 39,000  Level FlightAware ADS-B (SBFL / FLN)
Sun 04:27:20 PM 46.4279 -119.6350 203° Southwest 406 467 39,000  Level FlightAware ADS-B
Sun 04:28:13 PM 46.3380 -119.6899 203° Southwest 402 463 39,000  Level FlightAware ADS-B (SBFL / FLN)
Sun 04:28:55 PM 46.2655 -119.7340 1000° North 410 472 39,000  Level FlightAware ADS-B
Sun 04:28:56 PM 46.2840 -119.7230 203° Southwest 395 455 39,000  Level FlightAware ADS-B (SBFL / FLN)
Sun 04:29:31 PM 46.2050 -119.7711 202° Southwest 398 458 39,000  Level FlightAware ADS-B (SBFL / FLN)
Sun 04:30:17 PM 46.1237 -119.8108 197° South 402 463 39,000  Level FlightAware ADS-B (SBFL / FLN)
Sun 04:31:11 PM 46.0426 -119.8463 197° South 395 455 39,000  Level FlightAware ADS-B (SBFL / FLN)
Sun 04:36:39 PM 45.4620 -120.0993 197° South 404 465 39,000  Level FlightAware ADS-B (SBFL / FLN)
Sun 04:37:18 PM 45.4019 -120.1250 197° South 405 466 39,000  Level FlightAware ADS-B (SBFL / FLN)
Sun 04:38:55 PM 45.2276 -120.1986 197° South 405 466 39,000  Level FlightAware ADS-B (SBFL / FLN)
Sun 04:40:00 PM 45.0922 -120.2549 197° South 405 466 39,000  Level FlightAware ADS-B (SBFL / FLN)
Sun 04:40:37 PM 45.0390 -120.2775 197° South 405 466 39,000  Level FlightAware ADS-B (SBFL / FLN)
Sun 04:46:02 PM 44.4527 -120.5194 196° South 393 452 39,000  Level FlightAware ADS-B (SBFL / FLN)
Sun 04:46:41 PM 44.4018 -120.5406 196° South 391 450 39,000  Level FlightAware ADS-B (SBFL / FLN)
Sun 04:47:21 PM 44.3250 -120.5717 196° South 392 451 39,000  Level FlightAware ADS-B (SBFL / FLN)
Sun 04:47:58 PM 44.2511 -120.6013 196° South 392 451 39,000  Level FlightAware ADS-B (SBFL / FLN)
Sun 04:48:38 PM 44.1812 -120.6303 196° South 394 453 39,000  Level FlightAware ADS-B (SBFL / FLN)
Sun 04:53:03 PM 43.7171 -120.8163 196° South 398 458 39,000  Level FlightAware ADS-B (SBFL / FLN)
Sun 04:53:44 PM 43.6437 -120.8459 196° South 400 460 39,000  Level FlightAware ADS-B (SBFL / FLN)
Sun 04:54:43 PM 43.5384 -120.8874 196° South 400 460 39,000  Level FlightAware ADS-B (SBFL / FLN)
Sun 04:55:18 PM 43.4780 -120.9113 196° South 402 463 39,000  Level FlightAware ADS-B (SBFL / FLN)
Sun 04:56:02 PM 43.3986 -120.9424 196° South 403 464 39,000  Level FlightAware ADS-B (SBFL / FLN)
Sun 04:56:41 PM 43.3444 -120.9636 196° South 403 464 39,000  Level FlightAware ADS-B (SBFL / FLN)
Sun 04:57:44 PM 43.2142 -121.0150 196° South 403 464 39,000  Level FlightAware ADS-B (SBFL / FLN)
Sun 04:58:57 PM 43.0827 -121.0660 196° South 401 461 39,000  Level FlightAware ADS-B (SBFL / FLN)
Sun 05:00:17 PM 42.9514 -121.1178 196° South 407 468 39,000  Level Seattle Center
Sun 05:01:18 PM 42.8422 -121.1603 196° South 407 468 39,000  Level Seattle Center
Sun 05:02:19 PM 42.7333 -121.2014 196° South 404 465 39,000  Level Seattle Center
Sun 05:03:20 PM 42.6236 -121.2433 196° South 409 471 39,000  Level Seattle Center
Sun 05:04:21 PM 42.5161 -121.2856 196° South 404 465 39,000  Level Seattle Center
Sun 05:05:22 PM 42.4081 -121.3269 196° South 404 465 39,000  Level Seattle Center
Sun 05:06:23 PM 42.3008 -121.3683 196° South 399 459 39,000  Level Seattle Center
Sun 05:07:24 PM 42.1919 -121.4086 195° South 405 466 39,000  Level Seattle Center
Sun 05:08:25 PM 42.0833 -121.4489 195° South 402 463 39,000  Level Seattle Center
Sun 05:09:26 PM 41.9753 -121.4919 197° South 402 463 39,000  Level Seattle Center
Sun 05:10:27 PM 41.8669 -121.5328 196° South 400 460 39,000  Level Seattle Center
Sun 05:11:28 PM 41.7375 -121.5814 196° South 400 460 39,000  Level Seattle Center
Sun 05:12:29 PM 41.6308 -121.6211 196° South 396 456 39,000  Level Seattle Center
Sun 05:17:56 PM 41.0400 -121.8356 195° South 400 460 39,000  Level FlightAware ADS-B
Sun 05:18:28 PM 40.9827 -121.8571 196° South 402 463 39,000  Level FlightAware ADS-B
Sun 05:18:58 PM 40.9305 -121.8761 195° South 403 464 39,000  Level FlightAware ADS-B
Sun 05:19:45 PM 40.8458 -121.9066 195° South 403 464 39,000  Level FlightAware ADS-B
Sun 05:20:25 PM 40.7739 -121.9326 195° South 403 464 39,000  Level FlightAware ADS-B
Sun 05:20:57 PM 40.7158 -121.9535 195° South 403 464 39,000  Level FlightAware ADS-B
Sun 05:21:37 PM 40.6444 -121.9794 195° South 403 464 39,000  Level FlightAware ADS-B
Sun 05:22:19 PM 40.5681 -122.0066 195° South 403 464 39,000  Level FlightAware ADS-B
Sun 05:22:58 PM 40.4995 -122.0311 195° South 403 464 39,000  Level FlightAware ADS-B
Sun 05:23:32 PM 40.4363 -122.0536 195° South 401 461 39,000  Level FlightAware ADS-B
Sun 05:24:03 PM 40.4127 -122.0625 195° South 401 461 39,000  Level FlightAware ADS-B (KSAC)
Sun 05:24:40 PM 40.3297 -122.0919 195° South 400 460 39,000  Level FlightAware ADS-B (KSAC)
Sun 05:25:14 PM 40.2534 -122.1193 195° South 400 460 39,000  Level FlightAware ADS-B
Sun 05:25:45 PM 40.1994 -122.1384 195° South 400 460 39,000  Level FlightAware ADS-B
Sun 05:26:18 PM 40.1404 -122.1592 195° South 400 460 39,000  Level FlightAware ADS-B
Sun 05:26:48 PM 40.0975 -122.1745 195° South 399 459 39,000  Level FlightAware ADS-B
Sun 05:27:20 PM 40.0294 -122.1984 195° South 399 459 39,000  Level FlightAware ADS-B
Sun 05:27:50 PM 40.0043 -122.2072 195° South 400 460 39,000  Level FlightAware ADS-B
Sun 05:28:39 PM 39.9002 -122.2437 195° South 399 459 39,000  Level FlightAware ADS-B (KSAC)
Sun 05:29:18 PM 39.8305 -122.2683 195° South 402 463 39,000  Level FlightAware ADS-B (KSAC)
Sun 05:30:00 PM 39.7518 -122.2963 195° South 404 465 39,000  Level FlightAware ADS-B (KSAC)
Sun 05:30:58 PM 39.6465 -122.3331 195° South 406 467 39,000  Level FlightAware ADS-B (KSAC)
Sun 05:31:38 PM 39.5721 -122.3589 195° South 407 468 39,000 -535 Level FlightAware ADS-B (KSAC)
Sun 05:32:39 PM 39.4593 -122.3981 195° South 406 467 38,100 -1,118 Descending FlightAware ADS-B (KSAC)
Sun 05:33:20 PM 39.3863 -122.4236 194° South 412 474 37,100 -1,443 Descending FlightAware ADS-B (KSAC)
Sun 05:33:58 PM 39.3128 -122.4487 195° South 418 481 36,200 -1,200 Descending FlightAware ADS-B (KSAC)
Sun 05:34:40 PM 39.2332 -122.4764 194° South 416 479 35,500 -787 Descending FlightAware ADS-B (KSAC)
Sun 05:36:00 PM 39.0949 -122.5241 194° South 410 472 34,600 -706 Descending FlightAware ADS-B (KSAC)
Sun 05:36:39 PM 39.0226 -122.5487 194° South 408 470 34,100 -1,030 Descending FlightAware ADS-B (KSAC)
Sun 05:37:39 PM 38.9147 -122.5859 194° South 399 459 32,900 -2,083 Descending FlightAware ADS-B (KSAC)
Sun 05:38:40 PM 38.8038 -122.6234 194° South 404 465 29,900 -2,700 Descending FlightAware ADS-B (KSAC)
Sun 05:39:19 PM 38.7338 -122.6473 194° South 396 456 28,400 -2,100 Descending FlightAware ADS-B (KSAC)
Sun 05:41:20 PM 38.5249 -122.7173 191° South 370 426 24,300 -2,148 Descending FlightAware ADS-B (KSAC)
Sun 05:42:01 PM 38.4559 -122.7250 178° South 383 441 22,600 -2,376 Descending FlightAware ADS-B (KSAC)
Sun 05:43:01 PM 38.3490 -122.7133 174° South 385 443 20,300 -2,280 Descending FlightAware ADS-B (KSAC)
Sun 05:43:41 PM 38.2779 -122.7051 175° South 377 434 18,800 -2,049 Descending FlightAware ADS-B (KSAC)
Sun 05:44:23 PM 38.2322 -122.7001 175° South 368 423 17,500 -2,370 Descending FlightAware ADS-B (KSAC)
Sun 05:45:02 PM 38.1333 -122.6903 175° South 358 412 15,600 -2,519 Descending FlightAware ADS-B (KSAC)
Sun 05:45:44 PM 38.0734 -122.6840 175° South 353 406 14,100 -2,143 Descending FlightAware ADS-B (KSAC)
Sun 05:46:40 PM 37.9796 -122.6783 177° South 346 398 12,100 -1,856 Descending FlightAware ADS-B (KSAC)
Sun 05:47:21 PM 37.9197 -122.6733 169° South 334 384 11,100 -963 Descending FlightAware ADS-B (KSAC)
Sun 05:48:01 PM 37.8654 -122.6360 140° Southeast 294 338 10,800 -243 Descending FlightAware ADS-B (EPLL / LCJ)
Sun 05:48:35 PM 37.8252 -122.5930 139° Southeast 278 320 10,800  Level FlightAware ADS-B
Sun 05:49:31 PM 37.7708 -122.5350 139° Southeast 278 320 10,800  Level FlightAware ADS-B
Sun 05:50:13 PM 37.7290 -122.4910 140° Southeast 279 321 10,800  Level FlightAware ADS-B
Sun 05:50:43 PM 37.6993 -122.4590 140° Southeast 278 320 10,800  Level FlightAware ADS-B
Sun 05:51:13 PM 37.6694 -122.4270 140° Southeast 280 322 10,800  Level FlightAware ADS-B
Sun 05:51:41 PM 37.6526 -122.4089 140° Southeast 279 321 10,800  Level FlightAware ADS-B (EPLL / LCJ)
Sun 05:51:54 PM 37.6292 -122.3850 140° Southeast 278 320 10,800 -120 Level FlightAware ADS-B
Sun 05:52:31 PM 37.5953 -122.3470 147° Southeast 254 292 10,700 -545 Descending FlightAware ADS-B
Sun 05:52:38 PM 37.5982 -122.3491 151° Southeast 250 288 10,400 -1,565 Descending FlightAware ADS-B (EPLL / LCJ)
Sun 05:52:54 PM 37.5718 -122.3300 152° Southeast 249 287 10,100 -1,200 Descending FlightAware ADS-B
Sun 05:53:03 PM 37.5634 -122.3248 152° Southeast 249 287 9,900 -1,200 Descending FlightAware ADS-B (EPLL / LCJ)
Sun 05:53:09 PM 37.5563 -122.3200 152° Southeast 247 284 9,800 -1,364 Descending FlightAware ADS-B
Sun 05:53:25 PM 37.5406 -122.3090 153° Southeast 247 284 9,400 -1,355 Descending FlightAware ADS-B
Sun 05:53:40 PM 37.5253 -122.3000 153° Southeast 243 280 9,100 -1,355 Descending FlightAware ADS-B
Sun 05:53:56 PM 37.5087 -122.2890 153° Southeast 241 277 8,700 -1,500 Descending FlightAware ADS-B
Sun 05:54:00 PM 37.5047 -122.2864 153° Southeast 240 276 8,600 -1,875 Descending FlightAware ADS-B (EPLL / LCJ)
Sun 05:54:12 PM 37.4928 -122.2790 153° Southeast 238 274 8,200 -1,800 Descending FlightAware ADS-B
Sun 05:54:20 PM 37.4856 -122.2740 149° Southeast 238 274 8,000 -1,846 Descending FlightAware ADS-B
Sun 05:54:25 PM 37.4810 -122.2700 142° Southeast 239 275 7,800 -2,182 Descending FlightAware ADS-B
Sun 05:54:31 PM 37.4767 -122.2640 128° Southeast 243 280 7,600 -1,636 Descending FlightAware ADS-B
Sun 05:54:36 PM 37.4738 -122.2580 120° Southeast 245 282 7,500 -1,333 Descending FlightAware ADS-B
Sun 05:54:40 PM 37.4718 -122.2530 114° Southeast 247 284 7,400 -2,100 Descending FlightAware ADS-B
Sun 05:54:56 PM 37.4653 -122.2310 110° East 244 281 6,800 -2,276 Descending FlightAware ADS-B
Sun 05:55:09 PM 37.4599 -122.2130 110° East 241 277 6,300 -2,000 Descending FlightAware ADS-B
Sun 05:55:23 PM 37.4550 -122.1960 110° East 239 275 5,900 -1,800 Descending FlightAware ADS-B
Sun 05:55:39 PM 37.4488 -122.1750 110° East 238 274 5,400 -1,742 Descending FlightAware ADS-B
Sun 05:55:54 PM 37.4429 -122.1560 110° East 237 273 5,000 -1,500 Descending FlightAware ADS-B
Sun 05:55:59 PM 37.4412 -122.1490 108° East 237 273 4,900 -1,500 Descending FlightAware ADS-B
Sun 05:56:02 PM 37.4402 -122.1451 111° Southeast 238 274 4,800 -2,571 Descending FlightAware ADS-B (EPLL / LCJ)
Sun 05:56:06 PM 37.4395 -122.1400 97° East 241 277 4,600 -2,000 Descending FlightAware ADS-B
Sun 05:56:11 PM 37.4395 -122.1310 87° East 243 280 4,500 -1,667 Descending FlightAware ADS-B
Sun 05:56:24 PM 37.4441 -122.1150 61° Northeast 247 284 4,100 -1,765 Descending FlightAware ADS-B
Sun 05:56:28 PM 37.4467 -122.1100 53° Northeast 247 284 4,000 -1,333 Descending FlightAware ADS-B
Sun 05:56:33 PM 37.4502 -122.1050 45° Northeast 247 284 3,900 -600 Descending FlightAware ADS-B
Sun 05:56:38 PM 37.4548 -122.1000 35° Northeast 247 284 3,900 -667 Level FlightAware ADS-B
Sun 05:56:42 PM 37.4591 -122.0980 25° Northeast 247 284 3,800 -1,200 Descending FlightAware ADS-B
Sun 05:56:43 PM 37.4532 -122.1015 23° Northeast 248 285 3,800  Level FlightAware ADS-B (EPLL / LCJ)
Sun 05:56:45 PM 37.4626 -122.0960 19° North 248 285 3,800  Level FlightAware ADS-B
Sun 05:56:48 PM 37.4665 -122.0950 10° North 248 285 3,800  Level FlightAware ADS-B
Sun 05:56:52 PM 37.4700 -122.0940 North 247 284 3,800  Level FlightAware ADS-B
Sun 05:56:55 PM 37.4743 -122.0940 359° North 245 282 3,800  Level FlightAware ADS-B
Sun 05:57:01 PM 37.4803 -122.0950 346° North 242 278 3,800 400 Level FlightAware ADS-B
Sun 05:57:10 PM 37.4898 -122.1000 332° Northwest 241 277 3,900  Climbing FlightAware ADS-B
Sun 05:57:17 PM 37.4967 -122.1060 328° Northwest 241 277 3,800 -500 Descending FlightAware ADS-B
Sun 05:57:22 PM 37.5009 -122.1089 327° Northwest 241 277 3,800  Level FlightAware ADS-B (EPLL / LCJ)
Sun 05:57:34 PM 37.5119 -122.1180 327° Northwest 241 277 3,800  Level FlightAware ADS-B
Sun 05:57:38 PM 37.5161 -122.1230 319° Northwest 241 277 3,800  Level FlightAware ADS-B
Sun 05:57:40 PM 37.5109 -122.1174 326° Northwest 243 280 3,800 -429 Level FlightAware ADS-B (EPLL / LCJ)
Sun 05:57:52 PM 37.5231 -122.1380 286° West 234 269 3,700 -375 Descending FlightAware ADS-B
Sun 05:57:56 PM 37.5240 -122.1430 280° West 231 266 3,700 -600 Level FlightAware ADS-B
Sun 05:58:02 PM 37.5253 -122.1510 283° West 232 267 3,600 -667 Descending FlightAware ADS-B
Sun 05:58:05 PM 37.5264 -122.1550 290° West 234 269 3,600 -750 Level FlightAware ADS-B
Sun 05:58:10 PM 37.5286 -122.1610 298° West 234 269 3,500 -1,200 Descending FlightAware ADS-B
Sun 05:58:20 PM 37.5340 -122.1730 300° West 225 259 3,300 -1,500 Descending FlightAware ADS-B
Sun 05:58:26 PM 37.5372 -122.1800 298° West 223 257 3,100 -1,200 Descending FlightAware ADS-B
Sun 05:58:35 PM 37.5411 -122.1900 297° West 217 250 3,000 -783 Descending FlightAware ADS-B
Sun 05:58:49 PM 37.5477 -122.2050 298° West 203 234 2,800 -1,111 Descending FlightAware ADS-B
Sun 05:59:02 PM 37.5531 -122.2190 297° West 195 224 2,500 -1,500 Descending FlightAware ADS-B
Sun 05:59:17 PM 37.5595 -122.2330 298° West 190 219 2,100 -1,895 Descending FlightAware ADS-B
Sun 05:59:21 PM 37.5610 -122.2373 298° West 189 217 1,900 -1,600 Descending FlightAware ADS-B (EPLL / LCJ)
Sun 05:59:32 PM 37.5657 -122.2480 298° West 188 216 1,700 -889 Descending FlightAware ADS-B
Sun 05:59:48 PM 37.5721 -122.2640 298° West 176 203 1,500 -800 Descending FlightAware ADS-B
Sun 06:00:02 PM 37.5770 -122.2750 298° West 158 182 1,300 -800 Descending FlightAware ADS-B
Sun 06:00:18 PM 37.5821 -122.2880 298° West 152 175 1,100 -774 Descending FlightAware ADS-B
Sun 06:00:33 PM 37.5871 -122.2990 298° West 146 168 900 -828 Descending FlightAware ADS-B
Sun 06:00:47 PM 37.5916 -122.3100 298° West 149 171 700 -706 Descending FlightAware ADS-B
Sun 06:01:07 PM 37.5983 -122.3260 298° West 153 176 500 -828 Descending FlightAware ADS-B
Sun 06:01:16 PM 37.6012 -122.3330 298° West 151 174 300 -857 Descending FlightAware ADS-B
Sun 06:01:28 PM 37.6050 -122.3420 297° West 150 173 200 -632 Descending FlightAware ADS-B
Sun 06:01:35 PM 37.6072 -122.3470 298° West 148 170 100 -857 Descending FlightAware ADS-B
Sun 06:01:45 PM 37.6105 -122.3550 298° West 145 167 -600 Descending FlightAware ADS-B
Sun 06:01:57 PM 37.6142 -122.3640 298° West 143 165  Level FlightAware ADS-B

Login

Don't have an account? Register now (free) for customized features, flight alerts, and more!